Home > Products > Valid Products > TAF

000
FTUS44 KHGX 300405 AAA
TAFSGR
TAF AMD
KSGR 300405Z 3004/3024 00000KT P6SM MIFG FEW050 BKN250
     FM300600 36012KT P6SM SCT030 BKN110 BKN250
     FM301000 03015KT P6SM SCT120 OVC250
     FM301600 05012KT P6SM SCT150 OVC250=



000
FTUS44 KHGX 300405 AAA
TAFSGR
TAF AMD
KSGR 300405Z 3004/3024 00000KT P6SM MIFG FEW050 BKN250
     FM300600 36012KT P6SM SCT030 BKN110 BKN250
     FM301000 03015KT P6SM SCT120 OVC250
     FM301600 05012KT P6SM SCT150 OVC250=



000
FTUS44 KHGX 300404 AAC
TAFLBX
TAF AMD
KLBX 300404Z 3004/3024 00000KT 3SM BR MIFG FEW040 BKN250
      TEMPO 3004/3007 1SM BR
     FM300700 36007KT P6SM SCT030 BKN110 BKN250
     FM301000 02014KT P6SM SCT150 BKN250
     FM301600 05010KT P6SM SCT150 BKN250=



000
FTUS44 KHGX 300309 AAB
TAFGLS
TAF AMD
KGLS 300309Z 3003/3024 20003KT P6SM SCT040 BKN250
     FM300700 36007KT P6SM SCT150 BKN250
     FM300900 01014G24KT P6SM SCT030 BKN110 BKN250
     FM301800 04014KT P6SM SCT035 BKN250=



000
FTUS44 KHGX 300309 AAB
TAFGLS
TAF AMD
KGLS 300309Z 3003/3024 20003KT P6SM SCT040 BKN250
     FM300700 36007KT P6SM SCT150 BKN250
     FM300900 01014G24KT P6SM SCT030 BKN110 BKN250
     FM301800 04014KT P6SM SCT035 BKN250=



000
FTUS44 KHGX 300308 AAB
TAFLBX
TAF AMD
KLBX 300308Z 3003/3024 19003KT P6SM FEW040 BKN250
     FM300700 36007KT P6SM SCT030 BKN110 BKN250
     FM301000 02014KT P6SM SCT150 BKN250
     FM301600 05010KT P6SM SCT150 BKN250=



000
FTUS44 KHGX 300308 AAB
TAFLBX
TAF AMD
KLBX 300308Z 3003/3024 19003KT P6SM FEW040 BKN250
     FM300700 36007KT P6SM SCT030 BKN110 BKN250
     FM301000 02014KT P6SM SCT150 BKN250
     FM301600 05010KT P6SM SCT150 BKN250=



000
FTUS44 KHGX 300307 AAA
TAFHOU
TAF AMD
KHOU 300307Z 3003/3024 17003KT P6SM BKN040 BKN250
     FM300600 36008KT P6SM SCT030 BKN110 BKN250
     FM300800 02013KT P6SM BKN110
     FM301100 03011KT P6SM SCT120 OVC250
     FM301600 05012KT P6SM SCT150 OVC250=



000
FTUS44 KHGX 300307 AAA
TAFHOU
TAF AMD
KHOU 300307Z 3003/3024 17003KT P6SM BKN040 BKN250
     FM300600 36008KT P6SM SCT030 BKN110 BKN250
     FM300800 02013KT P6SM BKN110
     FM301100 03011KT P6SM SCT120 OVC250
     FM301600 05012KT P6SM SCT150 OVC250=



000
FTUS44 KHGX 300306 AAA
TAFIAH
TAF AMD
KIAH 300306Z 3003/3106 VRB02KT P6SM FEW045 SCT250
     FM300600 36009KT P6SM SCT030 OVC120
     FM301100 03011KT P6SM SCT120 OVC250
     FM301600 05012KT P6SM SCT150 OVC250
     FM302200 08007KT P6SM BKN150=



000
FTUS44 KHGX 300205 AAA
TAFLBX
TAF AMD
KLBX 300205Z 3002/3024 VRB02KT P6SM SCT250
      TEMPO 3002/3006 5SM BR
     FM300600 36010KT P6SM SCT030 BKN110 BKN250
     FM301000 02015KT P6SM SCT150 BKN250=



000
FTUS44 KHGX 300205 AAA
TAFLBX
TAF AMD
KLBX 300205Z 3002/3024 VRB02KT P6SM SCT250
      TEMPO 3002/3006 5SM BR
     FM300600 36010KT P6SM SCT030 BKN110 BKN250
     FM301000 02015KT P6SM SCT150 BKN250=



000
FTUS44 KHGX 300102 AAA
TAFGLS
TAF AMD
KGLS 300102Z 3001/3024 18004KT P6SM SCT250
      TEMPO 3002/3006 5SM BR
     FM300600 36009KT P6SM SCT150 BKN250
     FM300800 01014G24KT P6SM SCT030 BKN110 BKN250
     FM301800 04014KT P6SM SCT035 BKN250=



000
FTUS44 KHGX 292329
TAFSGR
TAF
KSGR 292329Z 3000/3024 28006KT P6SM FEW040 BKN250
     FM300400 36012KT P6SM SCT030 BKN110 BKN250
     FM301000 03015KT P6SM SCT120 OVC250
     FM301600 05012KT P6SM SCT150 OVC250=



000
FTUS44 KHGX 292329
TAFCXO
TAF
KCXO 292329Z 3000/3024 30007KT P6SM SCT120 BKN250
     FM300400 36008KT P6SM SCT030 BKN110 BKN250
     FM301600 04007KT P6SM SCT150 OVC250=



000
FTUS44 KHGX 292329
TAFUTS
TAF
KUTS 292329Z 3000/3024 30003KT P6SM SCT120 BKN250
     FM300300 36009KT P6SM BKN110 BKN250
     FM301600 04005KT P6SM SCT150 OVC250=



000
FTUS44 KHGX 292329
TAFHOU
TAF
KHOU 292329Z 3000/3024 28005KT P6SM FEW040 BKN250
     FM300500 36008KT P6SM SCT030 BKN110 BKN250
     FM300700 02014KT P6SM BKN110
     FM301100 03011KT P6SM SCT120 OVC250
     FM301600 05012KT P6SM SCT150 OVC250=



000
FTUS44 KHGX 292329
TAFUTS
TAF
KUTS 292329Z 3000/3024 30003KT P6SM SCT120 BKN250
     FM300300 36009KT P6SM BKN110 BKN250
     FM301600 04005KT P6SM SCT150 OVC250=



000
FTUS44 KHGX 292329
TAFIAH
TAF
KIAH 292329Z 3000/3106 25003KT P6SM FEW035 BKN250
     FM300400 36010KT P6SM SCT030 OVC120
     FM301100 03011KT P6SM SCT120 OVC250
     FM301600 05012KT P6SM SCT150 OVC250
     FM302200 08007KT P6SM BKN150=



000
FTUS44 KHGX 292329
TAFHOU
TAF
KHOU 292329Z 3000/3024 28005KT P6SM FEW040 BKN250
     FM300500 36008KT P6SM SCT030 BKN110 BKN250
     FM300700 02014KT P6SM BKN110
     FM301100 03011KT P6SM SCT120 OVC250
     FM301600 05012KT P6SM SCT150 OVC250=



000
FTUS44 KHGX 292329
TAFGLS
TAF
KGLS 292329Z 3000/3024 17008KT P6SM SCT250
     FM300100 VRB04KT 3SM BR SCT015 BKN110
     FM300600 36009KT P6SM SCT150 BKN250
     FM300800 01014G24KT P6SM SCT030 BKN110 BKN250
     FM301800 04014KT P6SM SCT035 BKN250=



000
FTUS44 KHGX 292329
TAFIAH
TAF
KIAH 292329Z 3000/3106 25003KT P6SM FEW035 BKN250
     FM300400 36010KT P6SM SCT030 OVC120
     FM301100 03011KT P6SM SCT120 OVC250
     FM301600 05012KT P6SM SCT150 OVC250
     FM302200 08007KT P6SM BKN150=



000
FTUS44 KHGX 292329
TAFLBX
TAF
KLBX 292329Z 3000/3024 19010KT P6SM FEW040 BKN250
     FM300200 VRB03KT 3SM BR SCT015 BKN110
     FM300600 36010KT P6SM SCT030 BKN110 BKN250
     FM301000 02015KT P6SM SCT150 BKN250=



000
FTUS44 KHGX 292329
TAFSGR
TAF
KSGR 292329Z 3000/3024 28006KT P6SM FEW040 BKN250
     FM300400 36012KT P6SM SCT030 BKN110 BKN250
     FM301000 03015KT P6SM SCT120 OVC250
     FM301600 05012KT P6SM SCT150 OVC250=



000
FTUS44 KHGX 292329
TAFLBX
TAF
KLBX 292329Z 3000/3024 19010KT P6SM FEW040 BKN250
     FM300200 VRB03KT 3SM BR SCT015 BKN110
     FM300600 36010KT P6SM SCT030 BKN110 BKN250
     FM301000 02015KT P6SM SCT150 BKN250=



000
FTUS44 KHGX 292329
TAFCLL
TAF
KCLL 292329Z 3000/3024 35006KT P6SM SCT120 BKN250
     FM300300 01014KT P6SM BKN110 BKN250
     FM301500 04009KT P6SM SCT150 OVC250=



000
FTUS44 KHGX 292329
TAFGLS
TAF
KGLS 292329Z 3000/3024 17008KT P6SM SCT250
     FM300100 VRB04KT 3SM BR SCT015 BKN110
     FM300600 36009KT P6SM SCT150 BKN250
     FM300800 01014G24KT P6SM SCT030 BKN110 BKN250
     FM301800 04014KT P6SM SCT035 BKN250=



000
FTUS44 KHGX 292329
TAFCLL
TAF
KCLL 292329Z 3000/3024 35006KT P6SM SCT120 BKN250
     FM300300 01014KT P6SM BKN110 BKN250
     FM301500 04009KT P6SM SCT150 OVC250=



000
FTUS44 KHGX 292329
TAFCXO
TAF
KCXO 292329Z 3000/3024 30007KT P6SM SCT120 BKN250
     FM300400 36008KT P6SM SCT030 BKN110 BKN250
     FM301600 04007KT P6SM SCT150 OVC250=



000
FTUS44 KHGX 292115 AAA
TAFCLL
TAF AMD
KCLL 292115Z 2921/3018 26007KT P6SM SCT025 SCT120
     FM300000 36011KT P6SM FEW030 BKN120
     FM300500 01012KT P6SM BKN110 BKN200
     FM301600 04009KT P6SM SCT150 OVC200=



000
FTUS44 KHGX 292115 AAA
TAFSGR
TAF AMD
KSGR 292115Z 2921/3018 26005KT P6SM FEW035 SCT120
     FM300400 36012KT P6SM SCT030 BKN110 BKN200
     FM301100 03011KT P6SM SCT120 OVC200
     FM301600 05012KT P6SM SCT150 OVC200=



000
FTUS44 KHGX 292115 AAB
TAFGLS
TAF AMD
KGLS 292115Z 2921/3018 20010KT P6SM FEW025
     FM300100 VRB04KT 3SM BR SCT015 BKN110
     FM300700 01014KT P6SM SCT030 BKN110 BKN200=



000
FTUS44 KHGX 292115 AAA
TAFCLL
TAF AMD
KCLL 292115Z 2921/3018 26007KT P6SM SCT025 SCT120
     FM300000 36011KT P6SM FEW030 BKN120
     FM300500 01012KT P6SM BKN110 BKN200
     FM301600 04009KT P6SM SCT150 OVC200=



000
FTUS44 KHGX 292115 AAB
TAFCXO
TAF AMD
KCXO 292115Z 2921/3018 28007KT P6SM SCT025 SCT120
     FM300000 32005KT P6SM SCT030 BKN120
     FM300500 36008KT P6SM SCT030 BKN110 BKN200
     FM301600 04007KT P6SM SCT150 OVC200=



000
FTUS44 KHGX 292115 AAB
TAFLBX
TAF AMD
KLBX 292115Z 2921/3018 20007KT P6SM BKN040
     FM300200 VRB03KT 3SM BR SCT015 BKN110
     FM300600 36010KT P6SM SCT030 BKN110 BKN200=



000
FTUS44 KHGX 292115 AAA
TAFUTS
TAF AMD
KUTS 292115Z 2921/3018 31007KT P6SM FEW045 SCT120
     FM300000 34007KT P6SM FEW030 BKN120
     FM300500 01007KT P6SM BKN110 BKN200
     FM301600 04005KT P6SM SCT150 OVC200=



000
FTUS44 KHGX 292115 AAB
TAFCXO
TAF AMD
KCXO 292115Z 2921/3018 28007KT P6SM SCT025 SCT120
     FM300000 32005KT P6SM SCT030 BKN120
     FM300500 36008KT P6SM SCT030 BKN110 BKN200
     FM301600 04007KT P6SM SCT150 OVC200=



000
FTUS44 KHGX 292115 AAA
TAFHOU
TAF AMD
KHOU 292115Z 2921/3018 29007KT P6SM FEW035 SCT120
     FM300000 33005KT P6SM SCT025 BKN120
     FM300600 36012KT P6SM SCT030 BKN110 BKN200
     FM301100 03011KT P6SM SCT120 OVC200
     FM301600 05012KT P6SM SCT150 OVC200=



000
FTUS44 KHGX 292115 AAA
TAFHOU
TAF AMD
KHOU 292115Z 2921/3018 29007KT P6SM FEW035 SCT120
     FM300000 33005KT P6SM SCT025 BKN120
     FM300600 36012KT P6SM SCT030 BKN110 BKN200
     FM301100 03011KT P6SM SCT120 OVC200
     FM301600 05012KT P6SM SCT150 OVC200=



000
FTUS44 KHGX 292115 AAB
TAFLBX
TAF AMD
KLBX 292115Z 2921/3018 20007KT P6SM BKN040
     FM300200 VRB03KT 3SM BR SCT015 BKN110
     FM300600 36010KT P6SM SCT030 BKN110 BKN200=



000
FTUS44 KHGX 292115 AAB
TAFGLS
TAF AMD
KGLS 292115Z 2921/3018 20010KT P6SM FEW025
     FM300100 VRB04KT 3SM BR SCT015 BKN110
     FM300700 01014KT P6SM SCT030 BKN110 BKN200=



000
FTUS44 KHGX 292115 AAA
TAFUTS
TAF AMD
KUTS 292115Z 2921/3018 31007KT P6SM FEW045 SCT120
     FM300000 34007KT P6SM FEW030 BKN120
     FM300500 01007KT P6SM BKN110 BKN200
     FM301600 04005KT P6SM SCT150 OVC200=



000
FTUS44 KHGX 292115 AAA
TAFSGR
TAF AMD
KSGR 292115Z 2921/3018 26005KT P6SM FEW035 SCT120
     FM300400 36012KT P6SM SCT030 BKN110 BKN200
     FM301100 03011KT P6SM SCT120 OVC200
     FM301600 05012KT P6SM SCT150 OVC200=



000
FTUS44 KHGX 292115 AAA
TAFIAH
TAF AMD
KIAH 292115Z 2921/3024 28006KT P6SM FEW035 SCT120
     FM300000 33005KT P6SM SCT025 BKN120
     FM300500 36010KT P6SM SCT030 OVC120
     FM301100 03011KT P6SM SCT120 OVC200
     FM301600 05012KT P6SM SCT150 OVC200
     FM302100 08008KT P6SM BKN150=



000
FTUS44 KHGX 292115 AAA
TAFIAH
TAF AMD
KIAH 292115Z 2921/3024 28006KT P6SM FEW035 SCT120
     FM300000 33005KT P6SM SCT025 BKN120
     FM300500 36010KT P6SM SCT030 OVC120
     FM301100 03011KT P6SM SCT120 OVC200
     FM301600 05012KT P6SM SCT150 OVC200
     FM302100 08008KT P6SM BKN150=



000
FTUS44 KHGX 292001 AAA
TAFGLS
TAF AMD
KGLS 292001Z 2920/3018 20010KT P6SM FEW025
     FM300100 VRB04KT 3SM BR SCT015 BKN110
     FM300700 01014KT P6SM SCT030 BKN110 BKN200=



000
FTUS44 KHGX 292001 AAA
TAFGLS
TAF AMD
KGLS 292001Z 2920/3018 20010KT P6SM FEW025
     FM300100 VRB04KT 3SM BR SCT015 BKN110
     FM300700 01014KT P6SM SCT030 BKN110 BKN200=



000
FTUS44 KHGX 292000 AAA
TAFLBX
TAF AMD
KLBX 292000Z 2920/3018 20007KT P6SM SCT035
     FM300200 VRB03KT 3SM BR SCT015 BKN110
     FM300600 36010KT P6SM SCT030 BKN110 BKN200=



000
FTUS44 KHGX 292000 AAA
TAFLBX
TAF AMD
KLBX 292000Z 2920/3018 20007KT P6SM SCT035
     FM300200 VRB03KT 3SM BR SCT015 BKN110
     FM300600 36010KT P6SM SCT030 BKN110 BKN200=



000
FTUS44 KHGX 291806 AAA
TAFCXO
TAF AMD
KCXO 291806Z 2918/3018 22011KT P6SM SCT015
     FM292000 27005KT P6SM SCT025 SCT120
     FM300000 32005KT P6SM SCT030 BKN120
     FM300500 36008KT P6SM SCT030 BKN110 BKN200
     FM301600 04007KT P6SM SCT150 OVC200=



000
FTUS44 KHGX 291806 AAA
TAFCXO
TAF AMD
KCXO 291806Z 2918/3018 22011KT P6SM SCT015
     FM292000 27005KT P6SM SCT025 SCT120
     FM300000 32005KT P6SM SCT030 BKN120
     FM300500 36008KT P6SM SCT030 BKN110 BKN200
     FM301600 04007KT P6SM SCT150 OVC200=



000
FTUS44 KHGX 291733 CCA
TAFSGR
TAF COR
KSGR 291733Z 2918/3018 25007KT P6SM SCT005
     FM291900 26005KT P6SM SCT020 SCT120
     FM300400 36012KT P6SM SCT030 BKN110 BKN200
     FM301100 03011KT P6SM SCT120 OVC200
     FM301600 05012KT P6SM SCT150 OVC200=



000
FTUS44 KHGX 291733 CCA
TAFSGR
TAF COR
KSGR 291733Z 2918/3018 25007KT P6SM SCT005
     FM291900 26005KT P6SM SCT020 SCT120
     FM300400 36012KT P6SM SCT030 BKN110 BKN200
     FM301100 03011KT P6SM SCT120 OVC200
     FM301600 05012KT P6SM SCT150 OVC200=



000
FTUS44 KHGX 291732
TAFGLS
TAF
KGLS 291732Z 2918/3018 19006KT P6SM SCT015 SCT110 SCT250
     FM292000 19008KT P6SM BKN025
     FM300100 VRB04KT 3SM BR SCT015 BKN110
     FM300700 01014KT P6SM SCT030 BKN110 BKN200=



000
FTUS44 KHGX 291732
TAFSGR
TAF
KSGR 291732Z 2918/3018 25007KT P6SM BKN005
     FM291900 26005KT P6SM SCT020 SCT120
     FM300400 36012KT P6SM SCT030 BKN110 BKN200
     FM301100 03011KT P6SM SCT120 OVC200
     FM301600 05012KT P6SM SCT150 OVC200=



000
FTUS44 KHGX 291732
TAFLBX
TAF
KLBX 291732Z 2918/3018 22008KT P6SM SCT015 SCT110 SCT250
     FM292000 20007KT P6SM BKN025
     FM300200 VRB03KT 3SM BR SCT015 BKN110
     FM300600 36010KT P6SM SCT030 BKN110 BKN200=



000
FTUS44 KHGX 291732
TAFCXO
TAF
KCXO 291732Z 2918/3018 24006KT P6SM SCT015 BKN020
     FM292000 27005KT P6SM SCT025 SCT120
     FM300000 32005KT P6SM SCT030 BKN120
     FM300500 36008KT P6SM SCT030 BKN110 BKN200
     FM301600 04007KT P6SM SCT150 OVC200=



000
FTUS44 KHGX 291732
TAFUTS
TAF
KUTS 291732Z 2918/3018 23007KT P6SM SCT015 SCT110 SCT250
     FM292000 31007KT P6SM SCT025 SCT120
     FM300000 34007KT P6SM FEW030 BKN120
     FM300500 01007KT P6SM BKN110 BKN200
     FM301600 04005KT P6SM SCT150 OVC200=



000
FTUS44 KHGX 291732
TAFHOU
TAF
KHOU 291732Z 2918/3018 28007KT P6SM SCT025 SCT120
      TEMPO 2918/2920 BKN025
     FM300000 33005KT P6SM SCT025 BKN120
     FM300600 36012KT P6SM SCT030 BKN110 BKN200
     FM301100 03011KT P6SM SCT120 OVC200
     FM301600 05012KT P6SM SCT150 OVC200=



000
FTUS44 KHGX 291732
TAFIAH
TAF
KIAH 291732Z 2918/3024 27006KT P6SM SCT025 SCT120
      TEMPO 2918/2920 BKN025
     FM300000 33005KT P6SM SCT025 BKN120
     FM300500 36010KT P6SM SCT030 OVC120
     FM301100 03011KT P6SM SCT120 OVC200
     FM301600 05012KT P6SM SCT150 OVC200
     FM302100 08008KT P6SM BKN150=



000
FTUS44 KHGX 291732
TAFSGR
TAF
KSGR 291732Z 2918/3018 25007KT P6SM BKN005
     FM291900 26005KT P6SM SCT020 SCT120
     FM300400 36012KT P6SM SCT030 BKN110 BKN200
     FM301100 03011KT P6SM SCT120 OVC200
     FM301600 05012KT P6SM SCT150 OVC200=



000
FTUS44 KHGX 291732
TAFLBX
TAF
KLBX 291732Z 2918/3018 22008KT P6SM SCT015 SCT110 SCT250
     FM292000 20007KT P6SM BKN025
     FM300200 VRB03KT 3SM BR SCT015 BKN110
     FM300600 36010KT P6SM SCT030 BKN110 BKN200=



000
FTUS44 KHGX 291732
TAFHOU
TAF
KHOU 291732Z 2918/3018 28007KT P6SM SCT025 SCT120
      TEMPO 2918/2920 BKN025
     FM300000 33005KT P6SM SCT025 BKN120
     FM300600 36012KT P6SM SCT030 BKN110 BKN200
     FM301100 03011KT P6SM SCT120 OVC200
     FM301600 05012KT P6SM SCT150 OVC200=



000
FTUS44 KHGX 291732
TAFCXO
TAF
KCXO 291732Z 2918/3018 24006KT P6SM SCT015 BKN020
     FM292000 27005KT P6SM SCT025 SCT120
     FM300000 32005KT P6SM SCT030 BKN120
     FM300500 36008KT P6SM SCT030 BKN110 BKN200
     FM301600 04007KT P6SM SCT150 OVC200=



000
FTUS44 KHGX 291732
TAFUTS
TAF
KUTS 291732Z 2918/3018 23007KT P6SM SCT015 SCT110 SCT250
     FM292000 31007KT P6SM SCT025 SCT120
     FM300000 34007KT P6SM FEW030 BKN120
     FM300500 01007KT P6SM BKN110 BKN200
     FM301600 04005KT P6SM SCT150 OVC200=



000
FTUS44 KHGX 291732
TAFIAH
TAF
KIAH 291732Z 2918/3024 27006KT P6SM SCT025 SCT120
      TEMPO 2918/2920 BKN025
     FM300000 33005KT P6SM SCT025 BKN120
     FM300500 36010KT P6SM SCT030 OVC120
     FM301100 03011KT P6SM SCT120 OVC200
     FM301600 05012KT P6SM SCT150 OVC200
     FM302100 08008KT P6SM BKN150=



000
FTUS44 KHGX 291732
TAFGLS
TAF
KGLS 291732Z 2918/3018 19006KT P6SM SCT015 SCT110 SCT250
     FM292000 19008KT P6SM BKN025
     FM300100 VRB04KT 3SM BR SCT015 BKN110
     FM300700 01014KT P6SM SCT030 BKN110 BKN200=



000
FTUS44 KHGX 291732
TAFCLL
TAF
KCLL 291732Z 2918/3018 26009KT P6SM SCT015 SCT110 SCT250
     FM292000 31007KT P6SM SCT025 SCT120
     FM300000 36011KT P6SM FEW030 BKN120
     FM300500 01012KT P6SM BKN110 BKN200
     FM301600 04009KT P6SM SCT150 OVC200=



000
FTUS44 KHGX 291732
TAFCLL
TAF
KCLL 291732Z 2918/3018 26009KT P6SM SCT015 SCT110 SCT250
     FM292000 31007KT P6SM SCT025 SCT120
     FM300000 36011KT P6SM FEW030 BKN120
     FM300500 01012KT P6SM BKN110 BKN200
     FM301600 04009KT P6SM SCT150 OVC200=



000
FTUS44 KHGX 291610 AAB
TAFHOU
TAF AMD
KHOU 291610Z 2916/3012 VRB03KT P6SM BKN020 OVC200
     FM291700 23007KT P6SM SCT015 SCT110 SCT250
     FM292000 26005KT P6SM SCT035 SCT120
     FM300400 36012KT P6SM SCT030 BKN110 BKN200
     FM301100 03011KT P6SM SCT120 OVC200=



000
FTUS44 KHGX 291609 AAB
TAFUTS
TAF AMD
KUTS 291609Z 2916/3012 25006KT P6SM BKN015
     FM291700 23004KT P6SM SCT015 SCT110 SCT250
     FM292000 31007KT P6SM SCT035 SCT120
     FM300000 34007KT P6SM FEW030 BKN120
     FM300500 01007KT P6SM BKN110 BKN200=



000
FTUS44 KHGX 291609 AAB
TAFUTS
TAF AMD
KUTS 291609Z 2916/3012 25006KT P6SM BKN015
     FM291700 23004KT P6SM SCT015 SCT110 SCT250
     FM292000 31007KT P6SM SCT035 SCT120
     FM300000 34007KT P6SM FEW030 BKN120
     FM300500 01007KT P6SM BKN110 BKN200=



000
FTUS44 KHGX 291607 AAB
TAFCXO
TAF AMD
KCXO 291607Z 2916/3012 00000KT P6SM OVC005
     FM291700 22004KT P6SM SCT015 SCT110 SCT250
     FM292000 27005KT P6SM SCT035 SCT120
     FM300000 32005KT P6SM SCT030 BKN120
     FM300500 36008KT P6SM SCT030 BKN110 BKN200=



000
FTUS44 KHGX 291607 AAB
TAFCXO
TAF AMD
KCXO 291607Z 2916/3012 00000KT P6SM OVC005
     FM291700 22004KT P6SM SCT015 SCT110 SCT250
     FM292000 27005KT P6SM SCT035 SCT120
     FM300000 32005KT P6SM SCT030 BKN120
     FM300500 36008KT P6SM SCT030 BKN110 BKN200=



000
FTUS44 KHGX 291606 AAB
TAFCLL
TAF AMD
KCLL 291606Z 2916/3012 31007KT P6SM BKN015 BKN120
     FM291700 22004KT P6SM SCT015 SCT110 SCT250
     FM292000 32007KT P6SM SCT035 SCT120
     FM300000 36011KT P6SM FEW030 BKN120
     FM300500 01012KT P6SM BKN110 BKN200=



000
FTUS44 KHGX 291606 AAB
TAFCLL
TAF AMD
KCLL 291606Z 2916/3012 31007KT P6SM BKN015 BKN120
     FM291700 22004KT P6SM SCT015 SCT110 SCT250
     FM292000 32007KT P6SM SCT035 SCT120
     FM300000 36011KT P6SM FEW030 BKN120
     FM300500 01012KT P6SM BKN110 BKN200=



000
FTUS44 KHGX 291548 AAB
TAFSGR
TAF AMD
KSGR 291548Z 2916/3012 VRB03KT 1/4SM FG VV001
     FM291630 23007KT P6SM SCT015 SCT110 SCT250
     FM292000 26005KT P6SM SCT035 SCT120
     FM300400 36012KT P6SM SCT030 BKN110 BKN200
     FM301100 03011KT P6SM SCT120 OVC200=



000
FTUS44 KHGX 291504 AAA
TAFHOU
TAF AMD
KHOU 291504Z 2915/3012 VRB03KT 2SM BR SCT002
     FM291600 23007KT P6SM SCT015 SCT110 SCT250
     FM292000 26005KT P6SM SCT035 SCT120
     FM300400 36012KT P6SM SCT030 BKN110 BKN200
     FM301100 03011KT P6SM SCT120 OVC200=



000
FTUS44 KHGX 291504 AAA
TAFLBX
TAF AMD
KLBX 291504Z 2915/3012 VRB03KT P6SM SKC
     FM291630 21008KT P6SM SCT015 SCT110 SCT250
     FM292000 20007KT P6SM SCT035 SCT120
     FM300200 VRB03KT 3SM BR SCT015 BKN110
      TEMPO 3002/3006 1SM BR BKN007
     FM300600 36010KT P6SM SCT030 BKN110 BKN200=



000
FTUS44 KHGX 291504 AAA
TAFCLL
TAF AMD
KCLL 291504Z 2915/3012 23007KT P6SM SCT015 BKN120
     FM291600 22004KT P6SM SCT015 SCT110 SCT250
     FM292000 32007KT P6SM SCT035 SCT120
     FM300000 36011KT P6SM FEW030 BKN120
     FM300500 01012KT P6SM BKN110 BKN200=



000
FTUS44 KHGX 291504 AAA
TAFLBX
TAF AMD
KLBX 291504Z 2915/3012 VRB03KT P6SM SKC
     FM291630 21008KT P6SM SCT015 SCT110 SCT250
     FM292000 20007KT P6SM SCT035 SCT120
     FM300200 VRB03KT 3SM BR SCT015 BKN110
      TEMPO 3002/3006 1SM BR BKN007
     FM300600 36010KT P6SM SCT030 BKN110 BKN200=



000
FTUS44 KHGX 291504 AAA
TAFSGR
TAF AMD
KSGR 291504Z 2915/3012 VRB03KT 1/4SM FG VV001
     FM291530 22004KT 4SM BR BKN007
     FM291630 23007KT P6SM SCT015 SCT110 SCT250
     FM292000 26005KT P6SM SCT035 SCT120
     FM300400 36012KT P6SM SCT030 BKN110 BKN200
     FM301100 03011KT P6SM SCT120 OVC200=



000
FTUS44 KHGX 291504 AAA
TAFUTS
TAF AMD
KUTS 291504Z 2915/3012 22006KT P6SM BKN011
     FM291600 23004KT P6SM SCT015 SCT110 SCT250
     FM292000 31007KT P6SM SCT035 SCT120
     FM300000 34007KT P6SM FEW030 BKN120
     FM300500 01007KT P6SM BKN110 BKN200=



000
FTUS44 KHGX 291504 AAA
TAFGLS
TAF AMD
KGLS 291504Z 2915/3012 17007KT P6SM SKC
     FM291630 19008KT P6SM SCT015 SCT110 SCT250
     FM292000 19008KT P6SM SCT035 SCT120
     FM300100 VRB04KT 3SM BR SCT015 BKN110
      TEMPO 3002/3006 1SM BR BKN007
     FM300700 01014KT P6SM SCT030 BKN110 BKN200=



000
FTUS44 KHGX 291504 AAA
TAFSGR
TAF AMD
KSGR 291504Z 2915/3012 VRB03KT 1/4SM FG VV001
     FM291530 22004KT 4SM BR BKN007
     FM291630 23007KT P6SM SCT015 SCT110 SCT250
     FM292000 26005KT P6SM SCT035 SCT120
     FM300400 36012KT P6SM SCT030 BKN110 BKN200
     FM301100 03011KT P6SM SCT120 OVC200=



000
FTUS44 KHGX 291504 AAB
TAFIAH
TAF AMD
KIAH 291504Z 2915/3018 22004KT 2SM BR BKN007
      TEMPO 2915/2916 1/4SM FG VV002
     FM291630 23007KT P6SM SCT015 SCT110 SCT250
     FM292000 27005KT P6SM SCT035 SCT120
     FM300000 33005KT P6SM SCT030 BKN120
     FM300500 36010KT P6SM SCT030 BKN110 BKN200
     FM301100 03011KT P6SM SCT120 OVC200
     FM301600 05012KT P6SM OVC200=



000
FTUS44 KHGX 291504 AAA
TAFCXO
TAF AMD
KCXO 291504Z 2915/3012 00000KT 1/4SM FG VV002
     FM291600 22004KT P6SM SCT015 SCT110 SCT250
     FM292000 27005KT P6SM SCT035 SCT120
     FM300000 32005KT P6SM SCT030 BKN120
     FM300500 36008KT P6SM SCT030 BKN110 BKN200=



000
FTUS44 KHGX 291504 AAA
TAFCLL
TAF AMD
KCLL 291504Z 2915/3012 23007KT P6SM SCT015 BKN120
     FM291600 22004KT P6SM SCT015 SCT110 SCT250
     FM292000 32007KT P6SM SCT035 SCT120
     FM300000 36011KT P6SM FEW030 BKN120
     FM300500 01012KT P6SM BKN110 BKN200=



000
FTUS44 KHGX 291504 AAB
TAFIAH
TAF AMD
KIAH 291504Z 2915/3018 22004KT 2SM BR BKN007
      TEMPO 2915/2916 1/4SM FG VV002
     FM291630 23007KT P6SM SCT015 SCT110 SCT250
     FM292000 27005KT P6SM SCT035 SCT120
     FM300000 33005KT P6SM SCT030 BKN120
     FM300500 36010KT P6SM SCT030 BKN110 BKN200
     FM301100 03011KT P6SM SCT120 OVC200
     FM301600 05012KT P6SM OVC200=



000
FTUS44 KHGX 291504 AAA
TAFHOU
TAF AMD
KHOU 291504Z 2915/3012 VRB03KT 2SM BR SCT002
     FM291600 23007KT P6SM SCT015 SCT110 SCT250
     FM292000 26005KT P6SM SCT035 SCT120
     FM300400 36012KT P6SM SCT030 BKN110 BKN200
     FM301100 03011KT P6SM SCT120 OVC200=



000
FTUS44 KHGX 291504 AAA
TAFUTS
TAF AMD
KUTS 291504Z 2915/3012 22006KT P6SM BKN011
     FM291600 23004KT P6SM SCT015 SCT110 SCT250
     FM292000 31007KT P6SM SCT035 SCT120
     FM300000 34007KT P6SM FEW030 BKN120
     FM300500 01007KT P6SM BKN110 BKN200=



000
FTUS44 KHGX 291504 AAA
TAFGLS
TAF AMD
KGLS 291504Z 2915/3012 17007KT P6SM SKC
     FM291630 19008KT P6SM SCT015 SCT110 SCT250
     FM292000 19008KT P6SM SCT035 SCT120
     FM300100 VRB04KT 3SM BR SCT015 BKN110
      TEMPO 3002/3006 1SM BR BKN007
     FM300700 01014KT P6SM SCT030 BKN110 BKN200=



000
FTUS44 KHGX 291504 AAA
TAFCXO
TAF AMD
KCXO 291504Z 2915/3012 00000KT 1/4SM FG VV002
     FM291600 22004KT P6SM SCT015 SCT110 SCT250
     FM292000 27005KT P6SM SCT035 SCT120
     FM300000 32005KT P6SM SCT030 BKN120
     FM300500 36008KT P6SM SCT030 BKN110 BKN200=



000
FTUS44 KHGX 291413 AAA
TAFIAH
TAF AMD
KIAH 291413Z 2914/3018 00000KT 3SM BR FEW003 BKN012
      TEMPO 2914/2915 1/2SM FG VV002
     FM291500 22004KT 4SM BR BKN007
     FM291630 23007KT P6SM SCT015 SCT110 SCT250
     FM292000 27005KT P6SM SCT035 SCT120
     FM300000 33005KT P6SM SCT030 BKN120
     FM300500 36010KT P6SM SCT030 BKN110 BKN200
     FM301100 03011KT P6SM SCT120 OVC200
     FM301600 05012KT P6SM OVC200=



000
FTUS44 KHGX 291413 AAA
TAFIAH
TAF AMD
KIAH 291413Z 2914/3018 00000KT 3SM BR FEW003 BKN012
      TEMPO 2914/2915 1/2SM FG VV002
     FM291500 22004KT 4SM BR BKN007
     FM291630 23007KT P6SM SCT015 SCT110 SCT250
     FM292000 27005KT P6SM SCT035 SCT120
     FM300000 33005KT P6SM SCT030 BKN120
     FM300500 36010KT P6SM SCT030 BKN110 BKN200
     FM301100 03011KT P6SM SCT120 OVC200
     FM301600 05012KT P6SM OVC200=



000
FTUS44 KHGX 291122
TAFSGR
TAF
KSGR 291122Z 2912/3012 VRB03KT 1/4SM FG VV001
      TEMPO 2914/2915 2SM BR BKN004
     FM291530 22004KT 4SM BR BKN007
     FM291630 23007KT P6SM SCT015 SCT110 SCT250
     FM292000 26005KT P6SM SCT035 SCT120
     FM300400 36012KT P6SM SCT030 BKN110 BKN200
     FM301100 03011KT P6SM SCT120 OVC200=



000
FTUS44 KHGX 291122
TAFCLL
TAF
KCLL 291122Z 2912/3012 20007KT P6SM BKN007
      TEMPO 2912/2915 4SM BR
     FM291600 22004KT P6SM SCT015 SCT110 SCT250
     FM292000 32007KT P6SM SCT035 SCT120
     FM300000 36011KT P6SM FEW030 BKN120
     FM300500 01012KT P6SM BKN110 BKN200=



000
FTUS44 KHGX 291122
TAFCXO
TAF
KCXO 291122Z 2912/3012 00000KT 1/4SM FG VV002
      TEMPO 2912/2915 1 1/2SM BR VV003
     FM291530 22004KT P6SM SCT015 SCT110 SCT250
     FM292000 27005KT P6SM SCT035 SCT120
     FM300000 32005KT P6SM SCT030 BKN120
     FM300500 36008KT P6SM SCT030 BKN110 BKN200=



000
FTUS44 KHGX 291122
TAFHOU
TAF
KHOU 291122Z 2912/3012 VRB03KT 1/2SM FG VV001
      TEMPO 2914/2915 2SM BR BKN004
     FM291530 22004KT 4SM BR BKN007
     FM291630 23007KT P6SM SCT015 SCT110 SCT250
     FM292000 26005KT P6SM SCT035 SCT120
     FM300400 36012KT P6SM SCT030 BKN110 BKN200
     FM301100 03011KT P6SM SCT120 OVC200=



000
FTUS44 KHGX 291122
TAFUTS
TAF
KUTS 291122Z 2912/3012 21006KT P6SM BKN007
      TEMPO 2912/2915 4SM BR
     FM291600 23004KT P6SM SCT015 SCT110 SCT250
     FM292000 31007KT P6SM SCT035 SCT120
     FM300000 34007KT P6SM FEW030 BKN120
     FM300500 01007KT P6SM BKN110 BKN200=



000
FTUS44 KHGX 291122
TAFIAH
TAF
KIAH 291122Z 2912/3018 00000KT 3SM BR FEW003 BKN012
      TEMPO 2912/2915 1 1/2SM BR VV003
     FM291500 22004KT 4SM BR BKN007
     FM291630 23007KT P6SM SCT015 SCT110 SCT250
     FM292000 27005KT P6SM SCT035 SCT120
     FM300000 33005KT P6SM SCT030 BKN120
     FM300500 36010KT P6SM SCT030 BKN110 BKN200
     FM301100 03011KT P6SM SCT120 OVC200
     FM301600 05012KT P6SM OVC200=



000
FTUS44 KHGX 291122
TAFLBX
TAF
KLBX 291122Z 2912/3012 VRB03KT 1/4SM FG VV001
      TEMPO 2914/2915 2SM BR VV003
     FM291530 20004KT 3SM BR BKN007
     FM291630 21008KT P6SM SCT015 SCT110 SCT250
     FM292000 20007KT P6SM SCT035 SCT120
     FM300200 VRB03KT 3SM BR SCT015 BKN110
      TEMPO 3002/3006 1SM BR BKN007
     FM300600 36010KT P6SM SCT030 BKN110 BKN200=



000
FTUS44 KHGX 291122
TAFGLS
TAF
KGLS 291122Z 2912/3012 17007KT 2SM BR SCT004 SCT250
      TEMPO 2912/2915 1SM BR VV004
     FM291630 19008KT P6SM SCT015 SCT110 SCT250
     FM292000 19008KT P6SM SCT035 SCT120
     FM300100 VRB04KT 3SM BR SCT015 BKN110
      TEMPO 3002/3006 1SM BR BKN007
     FM300700 01014KT P6SM SCT030 BKN110 BKN200=



000
FTUS44 KHGX 291122
TAFSGR
TAF
KSGR 291122Z 2912/3012 VRB03KT 1/4SM FG VV001
      TEMPO 2914/2915 2SM BR BKN004
     FM291530 22004KT 4SM BR BKN007
     FM291630 23007KT P6SM SCT015 SCT110 SCT250
     FM292000 26005KT P6SM SCT035 SCT120
     FM300400 36012KT P6SM SCT030 BKN110 BKN200
     FM301100 03011KT P6SM SCT120 OVC200=



000
FTUS44 KHGX 291122
TAFIAH
TAF
KIAH 291122Z 2912/3018 00000KT 3SM BR FEW003 BKN012
      TEMPO 2912/2915 1 1/2SM BR VV003
     FM291500 22004KT 4SM BR BKN007
     FM291630 23007KT P6SM SCT015 SCT110 SCT250
     FM292000 27005KT P6SM SCT035 SCT120
     FM300000 33005KT P6SM SCT030 BKN120
     FM300500 36010KT P6SM SCT030 BKN110 BKN200
     FM301100 03011KT P6SM SCT120 OVC200
     FM301600 05012KT P6SM OVC200=



000
FTUS44 KHGX 291122
TAFCXO
TAF
KCXO 291122Z 2912/3012 00000KT 1/4SM FG VV002
      TEMPO 2912/2915 1 1/2SM BR VV003
     FM291530 22004KT P6SM SCT015 SCT110 SCT250
     FM292000 27005KT P6SM SCT035 SCT120
     FM300000 32005KT P6SM SCT030 BKN120
     FM300500 36008KT P6SM SCT030 BKN110 BKN200=



000
FTUS44 KHGX 291122
TAFCLL
TAF
KCLL 291122Z 2912/3012 20007KT P6SM BKN007
      TEMPO 2912/2915 4SM BR
     FM291600 22004KT P6SM SCT015 SCT110 SCT250
     FM292000 32007KT P6SM SCT035 SCT120
     FM300000 36011KT P6SM FEW030 BKN120
     FM300500 01012KT P6SM BKN110 BKN200=



000
FTUS44 KHGX 291122
TAFHOU
TAF
KHOU 291122Z 2912/3012 VRB03KT 1/2SM FG VV001
      TEMPO 2914/2915 2SM BR BKN004
     FM291530 22004KT 4SM BR BKN007
     FM291630 23007KT P6SM SCT015 SCT110 SCT250
     FM292000 26005KT P6SM SCT035 SCT120
     FM300400 36012KT P6SM SCT030 BKN110 BKN200
     FM301100 03011KT P6SM SCT120 OVC200=



000
FTUS44 KHGX 291122
TAFUTS
TAF
KUTS 291122Z 2912/3012 21006KT P6SM BKN007
      TEMPO 2912/2915 4SM BR
     FM291600 23004KT P6SM SCT015 SCT110 SCT250
     FM292000 31007KT P6SM SCT035 SCT120
     FM300000 34007KT P6SM FEW030 BKN120
     FM300500 01007KT P6SM BKN110 BKN200=



000
FTUS44 KHGX 291122
TAFLBX
TAF
KLBX 291122Z 2912/3012 VRB03KT 1/4SM FG VV001
      TEMPO 2914/2915 2SM BR VV003
     FM291530 20004KT 3SM BR BKN007
     FM291630 21008KT P6SM SCT015 SCT110 SCT250
     FM292000 20007KT P6SM SCT035 SCT120
     FM300200 VRB03KT 3SM BR SCT015 BKN110
      TEMPO 3002/3006 1SM BR BKN007
     FM300600 36010KT P6SM SCT030 BKN110 BKN200=



000
FTUS44 KHGX 291122
TAFGLS
TAF
KGLS 291122Z 2912/3012 17007KT 2SM BR SCT004 SCT250
      TEMPO 2912/2915 1SM BR VV004
     FM291630 19008KT P6SM SCT015 SCT110 SCT250
     FM292000 19008KT P6SM SCT035 SCT120
     FM300100 VRB04KT 3SM BR SCT015 BKN110
      TEMPO 3002/3006 1SM BR BKN007
     FM300700 01014KT P6SM SCT030 BKN110 BKN200=



000
FTUS44 KHGX 291038 AAB
TAFIAH
TAF AMD
KIAH 291038Z 2911/3012 00000KT 2SM BR FEW003
      TEMPO 2911/2915 1SM BR VV003
     FM291500 22004KT 4SM BR BKN007
     FM291630 23007KT P6SM SCT015 SCT110 SCT250
     FM292000 27005KT P6SM SCT035 SCT120
     FM300000 33005KT P6SM SCT030 BKN120
     FM300500 36010KT P6SM SCT030 BKN110 BKN200
     FM301100 03011KT P6SM SCT120 OVC200=



000
FTUS44 KHGX 291038 AAB
TAFIAH
TAF AMD
KIAH 291038Z 2911/3012 00000KT 2SM BR FEW003
      TEMPO 2911/2915 1SM BR VV003
     FM291500 22004KT 4SM BR BKN007
     FM291630 23007KT P6SM SCT015 SCT110 SCT250
     FM292000 27005KT P6SM SCT035 SCT120
     FM300000 33005KT P6SM SCT030 BKN120
     FM300500 36010KT P6SM SCT030 BKN110 BKN200
     FM301100 03011KT P6SM SCT120 OVC200=



000
FTUS44 KHGX 290922 AAA
TAFCXO
TAF AMD
KCXO 290922Z 2909/3006 00000KT P6SM BKN003 OVC011 WS020/19030KT
     FM291100 18002KT 6SM BR SCT003 BKN010
      TEMPO 2911/2915 BKN003
     FM291700 23008KT P6SM FEW025 SCT250
     FM300100 34007KT P6SM BKN100=



000
FTUS44 KHGX 290921 AAA
TAFIAH
TAF AMD
KIAH 290921Z 2909/3012 00000KT 5SM MIFG BR FEW003 WS020/20030KT
     FM291000 19003KT 4SM BR SCT007 SCT250
      TEMPO 2912/2915 1SM BR
     FM291630 23007KT P6SM FEW020 SCT250
     FM300100 35006KT P6SM BKN100
     FM300600 01012KT P6SM BKN100=



000
FTUS44 KHGX 290919 AAB
TAFHOU
TAF AMD
KHOU 290919Z 2909/3006 16004KT 1/4SM FG VV001
      TEMPO 2913/2915 1 1/2SM BR
     FM291500 21005KT 3SM BR OVC007
     FM291630 25005KT P6SM BKN010
     FM291800 24009KT P6SM FEW020 SCT250
     FM300200 34006KT P6SM BKN100=



000
FTUS44 KHGX 290919 AAB
TAFHOU
TAF AMD
KHOU 290919Z 2909/3006 16004KT 1/4SM FG VV001
      TEMPO 2913/2915 1 1/2SM BR
     FM291500 21005KT 3SM BR OVC007
     FM291630 25005KT P6SM BKN010
     FM291800 24009KT P6SM FEW020 SCT250
     FM300200 34006KT P6SM BKN100=



000
FTUS44 KHGX 290813 AAA
TAFSGR
TAF AMD
KSGR 290813Z 2908/3006 19003KT 2SM BR SCT005
      TEMPO 2908/2912 1/2SM FG VV005
     FM291700 24007KT P6SM FEW020 SCT250
     FM300200 35006KT P6SM BKN100=



000
FTUS44 KHGX 290813 AAA
TAFSGR
TAF AMD
KSGR 290813Z 2908/3006 19003KT 2SM BR SCT005
      TEMPO 2908/2912 1/2SM FG VV005
     FM291700 24007KT P6SM FEW020 SCT250
     FM300200 35006KT P6SM BKN100=



000
FTUS44 KHGX 290810 AAA
TAFUTS
TAF AMD
KUTS 290810Z 2908/3006 20007KT P6SM OVC007 WS015/18035KT
     FM291500 22005KT P6SM BKN015
     FM291800 22007KT P6SM SCT020 BKN250
     FM292100 26005KT P6SM SCT250
     FM300000 32003KT P6SM OVC100=



000
FTUS44 KHGX 290710 AAA
TAFHOU
TAF AMD
KHOU 290710Z 2907/3006 16005KT 2SM BR MIFG SCT002
      TEMPO 2907/2909 1/2SM FG VV002
     FM290900 19003KT 4SM BR SCT002
      TEMPO 2909/2913 3/4SM BR
     FM291600 25005KT P6SM BKN010
     FM291800 24009KT P6SM FEW020 SCT250
     FM300200 34006KT P6SM BKN100=



000
FTUS44 KHGX 290710 AAA
TAFHOU
TAF AMD
KHOU 290710Z 2907/3006 16005KT 2SM BR MIFG SCT002
      TEMPO 2907/2909 1/2SM FG VV002
     FM290900 19003KT 4SM BR SCT002
      TEMPO 2909/2913 3/4SM BR
     FM291600 25005KT P6SM BKN010
     FM291800 24009KT P6SM FEW020 SCT250
     FM300200 34006KT P6SM BKN100=



000
FTUS44 KHGX 290646 AAA
TAFLBX
TAF AMD
KLBX 290646Z 2907/3006 17004KT 1/4SM FG VV001
     FM291500 00000KT 4SM BR SCT250
     FM291630 23005KT P6SM FEW020 SCT250
     FM300100 VRB02KT 6SM BR MIFG SCT015=



000
FTUS44 KHGX 290646 AAA
TAFLBX
TAF AMD
KLBX 290646Z 2907/3006 17004KT 1/4SM FG VV001
     FM291500 00000KT 4SM BR SCT250
     FM291630 23005KT P6SM FEW020 SCT250
     FM300100 VRB02KT 6SM BR MIFG SCT015=



000
FTUS44 KHGX 290532
TAFHOU
TAF
KHOU 290532Z 2906/3006 16005KT 6SM BR MIFG FEW250
     FM290900 19003KT 4SM BR MIFG SCT015 SCT100 SCT250
      TEMPO 2911/2914 3/4SM BR
     FM291600 25005KT P6SM BKN010
     FM291800 24009KT P6SM FEW020 SCT250
     FM300200 34006KT P6SM BKN100=



000
FTUS44 KHGX 290532
TAFLBX
TAF
KLBX 290532Z 2906/3006 VRB02KT 5SM BR MIFG FEW002
      TEMPO 2906/2909 1/2SM FG
     FM290900 VRB02KT 1/2SM FG SCT002
     FM291600 23005KT P6SM FEW020 SCT250
     FM300100 VRB02KT 6SM BR MIFG SCT015=



000
FTUS44 KHGX 290532
TAFHOU
TAF
KHOU 290532Z 2906/3006 16005KT 6SM BR MIFG FEW250
     FM290900 19003KT 4SM BR MIFG SCT015 SCT100 SCT250
      TEMPO 2911/2914 3/4SM BR
     FM291600 25005KT P6SM BKN010
     FM291800 24009KT P6SM FEW020 SCT250
     FM300200 34006KT P6SM BKN100=



000
FTUS44 KHGX 290532
TAFGLS
TAF
KGLS 290532Z 2906/3006 17007KT P6SM SKC
     FM291600 19009KT P6SM SCT250
     FM300200 VRB03KT 6SM BR MIFG SCT015=



000
FTUS44 KHGX 290532
TAFCLL
TAF
KCLL 290532Z 2906/3006 18010KT P6SM FEW003 WS016/18040KT
      TEMPO 2908/2911 BKN005
     FM291100 19005KT 6SM BR BKN005
     FM291600 23008KT P6SM SCT007 BKN015
     FM291900 28008KT P6SM SCT250
     FM300000 36012G22KT P6SM BKN100=



000
FTUS44 KHGX 290532
TAFUTS
TAF
KUTS 290532Z 2906/3006 18008KT P6SM FEW005 WS015/18035KT
     FM291000 18003KT 6SM BR SCT007 BKN015
     FM291700 22008KT P6SM SCT250
     FM300000 35012KT P6SM BKN100=



000
FTUS44 KHGX 290532
TAFSGR
TAF
KSGR 290532Z 2906/3006 16004KT 4SM BR MIFG FEW007
     FM290800 18003KT 1SM BR SCT005
     FM291700 24007KT P6SM FEW020 SCT250
     FM300200 35006KT P6SM BKN100=



000
FTUS44 KHGX 290532
TAFCXO
TAF
KCXO 290532Z 2906/3006 VRB02KT P6SM MIFG FEW005 WS020/19030KT
     FM291000 18002KT 6SM BR SCT007 BKN015
      TEMPO 2911/2915 BKN007
     FM291700 23008KT P6SM FEW025 SCT250
     FM300100 34007KT P6SM BKN100=



000
FTUS44 KHGX 290532
TAFUTS
TAF
KUTS 290532Z 2906/3006 18008KT P6SM FEW005 WS015/18035KT
     FM291000 18003KT 6SM BR SCT007 BKN015
     FM291700 22008KT P6SM SCT250
     FM300000 35012KT P6SM BKN100=



000
FTUS44 KHGX 290532
TAFCXO
TAF
KCXO 290532Z 2906/3006 VRB02KT P6SM MIFG FEW005 WS020/19030KT
     FM291000 18002KT 6SM BR SCT007 BKN015
      TEMPO 2911/2915 BKN007
     FM291700 23008KT P6SM FEW025 SCT250
     FM300100 34007KT P6SM BKN100=



000
FTUS44 KHGX 290532
TAFIAH
TAF
KIAH 290532Z 2906/3012 18004KT P6SM FEW005 WS020/19030KT
     FM291000 19003KT 6SM BR SCT007 SCT250
      TEMPO 2912/2915 1SM BR
     FM291700 23007KT P6SM FEW020 SCT250
     FM300100 35006KT P6SM BKN100
     FM300600 01012KT P6SM BKN100=



000
FTUS44 KHGX 290532
TAFIAH
TAF
KIAH 290532Z 2906/3012 18004KT P6SM FEW005 WS020/19030KT
     FM291000 19003KT 6SM BR SCT007 SCT250
      TEMPO 2912/2915 1SM BR
     FM291700 23007KT P6SM FEW020 SCT250
     FM300100 35006KT P6SM BKN100
     FM300600 01012KT P6SM BKN100=



000
FTUS44 KHGX 290532
TAFSGR
TAF
KSGR 290532Z 2906/3006 16004KT 4SM BR MIFG FEW007
     FM290800 18003KT 1SM BR SCT005
     FM291700 24007KT P6SM FEW020 SCT250
     FM300200 35006KT P6SM BKN100=



000
FTUS44 KHGX 290532
TAFLBX
TAF
KLBX 290532Z 2906/3006 VRB02KT 5SM BR MIFG FEW002
      TEMPO 2906/2909 1/2SM FG
     FM290900 VRB02KT 1/2SM FG SCT002
     FM291600 23005KT P6SM FEW020 SCT250
     FM300100 VRB02KT 6SM BR MIFG SCT015=



000
FTUS44 KHGX 290532
TAFGLS
TAF
KGLS 290532Z 2906/3006 17007KT P6SM SKC
     FM291600 19009KT P6SM SCT250
     FM300200 VRB03KT 6SM BR MIFG SCT015=



000
FTUS44 KHGX 290532
TAFCLL
TAF
KCLL 290532Z 2906/3006 18010KT P6SM FEW003 WS016/18040KT
      TEMPO 2908/2911 BKN005
     FM291100 19005KT 6SM BR BKN005
     FM291600 23008KT P6SM SCT007 BKN015
     FM291900 28008KT P6SM SCT250
     FM300000 36012G22KT P6SM BKN100=



000
FTUS44 KHGX 290427 AAC
TAFLBX
TAF AMD
KLBX 290427Z 2904/2924 17003KT 2SM BR MIFG FEW004
      TEMPO 2904/2906 1/4SM FG
     FM290600 18003KT 1/4SM FG FEW004
     FM291600 23005KT P6SM FEW020 BKN100=



000
FTUS44 KHGX 290427 AAC
TAFLBX
TAF AMD
KLBX 290427Z 2904/2924 17003KT 2SM BR MIFG FEW004
      TEMPO 2904/2906 1/4SM FG
     FM290600 18003KT 1/4SM FG FEW004
     FM291600 23005KT P6SM FEW020 BKN100=



000
FTUS44 KHGX 290309 AAA
TAFSGR
TAF AMD
KSGR 290309Z 2903/2924 17004KT P6SM MIFG SKC
     FM290900 19003KT 4SM BR SCT015 SCT100 SCT250
     FM291100 18003KT 1SM BR SCT015 SCT100 SCT250
     FM291700 24005KT P6SM FEW020 BKN100=



000
FTUS44 KHGX 290309 AAA
TAFSGR
TAF AMD
KSGR 290309Z 2903/2924 17004KT P6SM MIFG SKC
     FM290900 19003KT 4SM BR SCT015 SCT100 SCT250
     FM291100 18003KT 1SM BR SCT015 SCT100 SCT250
     FM291700 24005KT P6SM FEW020 BKN100=



000
FTUS44 KHGX 290304 CCA
TAFIAH
TAF COR
KIAH 290304Z 2903/3006 17005KT P6SM SKC
     FM290900 19003KT 5SM BR SCT015 SCT100 SCT250
      TEMPO 2912/2914 1SM BR
     FM291600 23007KT P6SM FEW020 BKN100
     FM300000 30004KT P6SM SCT015 BKN100=



000
FTUS44 KHGX 290303 AAA
TAFHOU
TAF AMD
KHOU 290303Z 2903/2924 17006KT P6SM MIFG FEW250
     FM290900 19003KT 4SM BR MIFG SCT015 SCT100 SCT250
      TEMPO 2911/2914 1SM BR
     FM291600 25005KT P6SM FEW020 BKN100=



000
FTUS44 KHGX 290303 AAA
TAFHOU
TAF AMD
KHOU 290303Z 2903/2924 17006KT P6SM MIFG FEW250
     FM290900 19003KT 4SM BR MIFG SCT015 SCT100 SCT250
      TEMPO 2911/2914 1SM BR
     FM291600 25005KT P6SM FEW020 BKN100=



000
FTUS44 KHGX 290302 AAB
TAFIAH
TAF AMD
KIAH 290302Z 2903/3006 17005KT P6SM SKC
     FM291000 19003KT 5SM BR SCT015 SCT100 SCT250
     FM291600 23007KT P6SM FEW020 BKN100
     FM300000 30004KT P6SM SCT015 BKN100=



000
FTUS44 KHGX 290302 AAB
TAFIAH
TAF AMD
KIAH 290302Z 2903/3006 17005KT P6SM SKC
     FM291000 19003KT 5SM BR SCT015 SCT100 SCT250
     FM291600 23007KT P6SM FEW020 BKN100
     FM300000 30004KT P6SM SCT015 BKN100=



000
FTUS44 KHGX 290259 AAB
TAFLBX
TAF AMD
KLBX 290259Z 2903/2924 17003KT 2SM BR MIFG FEW004
      TEMPO 2903/2906 1/2SM FG
     FM291600 23005KT P6SM FEW020 BKN100=



000
FTUS44 KHGX 290259 AAB
TAFLBX
TAF AMD
KLBX 290259Z 2903/2924 17003KT 2SM BR MIFG FEW004
      TEMPO 2903/2906 1/2SM FG
     FM291600 23005KT P6SM FEW020 BKN100=



000
FTUS44 KHGX 290159 AAA
TAFIAH
TAF AMD
KIAH 290159Z 2902/3006 17006KT P6SM FEW250
     FM291000 19003KT 5SM BR SCT015 SCT100 SCT250
     FM291600 23007KT P6SM FEW020 BKN100
     FM300000 30004KT P6SM SCT015 BKN100=



000
FTUS44 KHGX 290159 AAA
TAFIAH
TAF AMD
KIAH 290159Z 2902/3006 17006KT P6SM FEW250
     FM291000 19003KT 5SM BR SCT015 SCT100 SCT250
     FM291600 23007KT P6SM FEW020 BKN100
     FM300000 30004KT P6SM SCT015 BKN100=



000
FTUS44 KHGX 290139 AAA
TAFLBX
TAF AMD
KLBX 290139Z 2902/2924 17003KT 6SM BR MIFG SKC
      TEMPO 2903/2906 1SM BR
     FM290600 19003KT 1SM BR MIFG FEW004 SCT250
     FM291600 23005KT P6SM FEW020 BKN100=



000
FTUS44 KHGX 290139 AAA
TAFLBX
TAF AMD
KLBX 290139Z 2902/2924 17003KT 6SM BR MIFG SKC
      TEMPO 2903/2906 1SM BR
     FM290600 19003KT 1SM BR MIFG FEW004 SCT250
     FM291600 23005KT P6SM FEW020 BKN100=



000
FTUS44 KHGX 282328
TAFHOU
TAF
KHOU 282328Z 2900/2924 16009KT P6SM SKC
     FM290300 18004KT P6SM SCT250
     FM291000 19003KT 4SM BR SCT015 SCT100 SCT250
     FM291600 25005KT P6SM FEW020 BKN100=



000
FTUS44 KHGX 282328
TAFCXO
TAF
KCXO 282328Z 2900/2924 16008KT P6SM SKC
     FM290800 18003KT 3SM BR SCT015 SCT100 SCT250
     FM291100 18003KT 1SM BR SCT015 SCT100 SCT250
     FM291600 26008KT P6SM FEW015 SCT100 SCT250=



000
FTUS44 KHGX 282328
TAFCLL
TAF
KCLL 282328Z 2900/2924 17010KT P6SM SKC
     FM290500 17005KT P6SM SCT250
     FM290800 18003KT 3SM BR SCT015 SCT100 SCT250
     FM291600 26008KT P6SM FEW015 SCT100 SCT250=



000
FTUS44 KHGX 282328
TAFLBX
TAF
KLBX 282328Z 2900/2924 16010KT P6SM SKC
     FM290400 18004KT 5SM BR SCT250
     FM290800 19003KT 1SM BR FEW004 SCT250
     FM291600 23005KT P6SM FEW020 BKN100=



000
FTUS44 KHGX 282328
TAFUTS
TAF
KUTS 282328Z 2900/2924 18006KT P6SM SKC
     FM290800 18003KT 3SM BR SCT015 SCT100 SCT250
     FM291600 26008KT P6SM FEW015 SCT100 SCT250=



000
FTUS44 KHGX 282328
TAFIAH
TAF
KIAH 282328Z 2900/3006 13012KT P6SM FEW250
     FM290300 18004KT P6SM SCT250
     FM291000 19003KT 5SM BR SCT015 SCT100 SCT250
     FM291600 23007KT P6SM FEW020 BKN100
     FM300000 30004KT P6SM SCT015 BKN100=



000
FTUS44 KHGX 282328
TAFGLS
TAF
KGLS 282328Z 2900/2924 17011KT P6SM SKC
     FM290600 18006KT 6SM BR SCT250
     FM291600 19009KT P6SM SCT250=



000
FTUS44 KHGX 282328
TAFSGR
TAF
KSGR 282328Z 2900/2924 21007KT P6SM SKC
     FM290900 19003KT 4SM BR SCT015 SCT100 SCT250
     FM291100 18003KT 1SM BR SCT015 SCT100 SCT250
     FM291700 24005KT P6SM FEW020 BKN100=



000
FTUS44 KHGX 282328
TAFLBX
TAF
KLBX 282328Z 2900/2924 16010KT P6SM SKC
     FM290400 18004KT 5SM BR SCT250
     FM290800 19003KT 1SM BR FEW004 SCT250
     FM291600 23005KT P6SM FEW020 BKN100=



000
FTUS44 KHGX 282328
TAFCLL
TAF
KCLL 282328Z 2900/2924 17010KT P6SM SKC
     FM290500 17005KT P6SM SCT250
     FM290800 18003KT 3SM BR SCT015 SCT100 SCT250
     FM291600 26008KT P6SM FEW015 SCT100 SCT250=



000
FTUS44 KHGX 282328
TAFIAH
TAF
KIAH 282328Z 2900/3006 13012KT P6SM FEW250
     FM290300 18004KT P6SM SCT250
     FM291000 19003KT 5SM BR SCT015 SCT100 SCT250
     FM291600 23007KT P6SM FEW020 BKN100
     FM300000 30004KT P6SM SCT015 BKN100=



000
FTUS44 KHGX 282328
TAFGLS
TAF
KGLS 282328Z 2900/2924 17011KT P6SM SKC
     FM290600 18006KT 6SM BR SCT250
     FM291600 19009KT P6SM SCT250=



000
FTUS44 KHGX 282328
TAFHOU
TAF
KHOU 282328Z 2900/2924 16009KT P6SM SKC
     FM290300 18004KT P6SM SCT250
     FM291000 19003KT 4SM BR SCT015 SCT100 SCT250
     FM291600 25005KT P6SM FEW020 BKN100=



000
FTUS44 KHGX 282328
TAFUTS
TAF
KUTS 282328Z 2900/2924 18006KT P6SM SKC
     FM290800 18003KT 3SM BR SCT015 SCT100 SCT250
     FM291600 26008KT P6SM FEW015 SCT100 SCT250=



000
FTUS44 KHGX 282328
TAFCXO
TAF
KCXO 282328Z 2900/2924 16008KT P6SM SKC
     FM290800 18003KT 3SM BR SCT015 SCT100 SCT250
     FM291100 18003KT 1SM BR SCT015 SCT100 SCT250
     FM291600 26008KT P6SM FEW015 SCT100 SCT250=



000
FTUS44 KHGX 282328
TAFSGR
TAF
KSGR 282328Z 2900/2924 21007KT P6SM SKC
     FM290900 19003KT 4SM BR SCT015 SCT100 SCT250
     FM291100 18003KT 1SM BR SCT015 SCT100 SCT250
     FM291700 24005KT P6SM FEW020 BKN100=



000
FTUS44 KHGX 282103 AAB
TAFHOU
TAF AMD
KHOU 282103Z 2821/2918 15009KT P6SM SCT250
     FM290300 18004KT P6SM SCT250
     FM291000 19003KT 4SM BR SCT015 SCT100 SCT250
     FM291700 25005KT P6SM FEW020 BKN100=



000
FTUS44 KHGX 282103 AAB
TAFHOU
TAF AMD
KHOU 282103Z 2821/2918 15009KT P6SM SCT250
     FM290300 18004KT P6SM SCT250
     FM291000 19003KT 4SM BR SCT015 SCT100 SCT250
     FM291700 25005KT P6SM FEW020 BKN100=



000
FTUS44 KHGX 282100 AAA
TAFGLS
TAF AMD
KGLS 282100Z 2821/2918 17011KT P6SM SCT250
     FM290600 18006KT 6SM BR SCT250=



000
FTUS44 KHGX 282100 AAA
TAFGLS
TAF AMD
KGLS 282100Z 2821/2918 17011KT P6SM SCT250
     FM290600 18006KT 6SM BR SCT250=



000
FTUS44 KHGX 282100 AAA
TAFIAH
TAF AMD
KIAH 282100Z 2821/2924 14013KT P6SM SCT250
     FM290300 18004KT P6SM SCT250
     FM291000 19003KT 4SM BR SCT015 SCT100 SCT250
     FM291800 26005KT P6SM FEW020 BKN100=



000
FTUS44 KHGX 282100 AAA
TAFIAH
TAF AMD
KIAH 282100Z 2821/2924 14013KT P6SM SCT250
     FM290300 18004KT P6SM SCT250
     FM291000 19003KT 4SM BR SCT015 SCT100 SCT250
     FM291800 26005KT P6SM FEW020 BKN100=



000
FTUS44 KHGX 282058 AAA
TAFHOU
TAF AMD
KHOU 282058Z 2821/2918 17009KT P6SM SCT250
     FM290300 18004KT P6SM SCT250
     FM291000 19003KT 4SM BR SCT015 SCT100 SCT250
     FM291700 25005KT P6SM FEW020 BKN100=



000
FTUS44 KHGX 282058 AAA
TAFHOU
TAF AMD
KHOU 282058Z 2821/2918 17009KT P6SM SCT250
     FM290300 18004KT P6SM SCT250
     FM291000 19003KT 4SM BR SCT015 SCT100 SCT250
     FM291700 25005KT P6SM FEW020 BKN100=



000
FTUS44 KHGX 281720
TAFCLL
TAF
KCLL 281720Z 2818/2918 17009KT P6SM SCT250
     FM290300 17005KT P6SM SCT250
     FM290800 18003KT 3SM BR SCT015 SCT100 SCT250
     FM291700 26006KT P6SM FEW015 SCT100 SCT250=



000
FTUS44 KHGX 281720
TAFIAH
TAF
KIAH 281720Z 2818/2924 15006KT P6SM SCT250
     FM290300 18004KT P6SM SCT250
     FM291000 19003KT 4SM BR SCT015 SCT100 SCT250
     FM291800 26005KT P6SM FEW020 BKN100=



000
FTUS44 KHGX 281720
TAFCXO
TAF
KCXO 281720Z 2818/2918 16006KT P6SM SCT250
     FM290800 18003KT 3SM BR SCT015 SCT100 SCT250
     FM291100 18003KT 1SM BR SCT015 SCT100 SCT250
     FM291700 26006KT P6SM FEW015 SCT100 SCT250=



000
FTUS44 KHGX 281720
TAFUTS
TAF
KUTS 281720Z 2818/2918 18008KT P6SM SCT250
     FM290300 17005KT P6SM SCT250
     FM290800 18003KT 3SM BR SCT015 SCT100 SCT250
     FM291700 26006KT P6SM FEW015 SCT100 SCT250=



000
FTUS44 KHGX 281720
TAFUTS
TAF
KUTS 281720Z 2818/2918 18008KT P6SM SCT250
     FM290300 17005KT P6SM SCT250
     FM290800 18003KT 3SM BR SCT015 SCT100 SCT250
     FM291700 26006KT P6SM FEW015 SCT100 SCT250=



000
FTUS44 KHGX 281720
TAFLBX
TAF
KLBX 281720Z 2818/2918 VRB03KT P6SM FEW250
     FM282000 16009KT P6SM SCT250
     FM290500 18004KT 5SM BR SCT250
     FM290800 19003KT 1SM BR FEW004 SCT250
     FM291700 23005KT P6SM FEW020 BKN100=



000
FTUS44 KHGX 281720
TAFGLS
TAF
KGLS 281720Z 2818/2918 14008KT P6SM SCT250
     FM290600 18006KT 6SM BR SCT250=



000
FTUS44 KHGX 281720
TAFCXO
TAF
KCXO 281720Z 2818/2918 16006KT P6SM SCT250
     FM290800 18003KT 3SM BR SCT015 SCT100 SCT250
     FM291100 18003KT 1SM BR SCT015 SCT100 SCT250
     FM291700 26006KT P6SM FEW015 SCT100 SCT250=



000
FTUS44 KHGX 281720
TAFSGR
TAF
KSGR 281720Z 2818/2918 VRB03KT P6SM FEW250
     FM282000 15009KT P6SM SCT250
     FM290300 18004KT P6SM SCT250
     FM290900 19003KT 4SM BR SCT015 SCT100 SCT250
     FM291100 18003KT 1SM BR SCT015 SCT100 SCT250
     FM291700 24005KT P6SM FEW020 BKN100=



000
FTUS44 KHGX 281720
TAFIAH
TAF
KIAH 281720Z 2818/2924 15006KT P6SM SCT250
     FM290300 18004KT P6SM SCT250
     FM291000 19003KT 4SM BR SCT015 SCT100 SCT250
     FM291800 26005KT P6SM FEW020 BKN100=



000
FTUS44 KHGX 281720
TAFHOU
TAF
KHOU 281720Z 2818/2918 VRB03KT P6SM FEW250
     FM282000 15009KT P6SM SCT250
     FM290300 18004KT P6SM SCT250
     FM291000 19003KT 4SM BR SCT015 SCT100 SCT250
     FM291700 25005KT P6SM FEW020 BKN100=



000
FTUS44 KHGX 281720
TAFLBX
TAF
KLBX 281720Z 2818/2918 VRB03KT P6SM FEW250
     FM282000 16009KT P6SM SCT250
     FM290500 18004KT 5SM BR SCT250
     FM290800 19003KT 1SM BR FEW004 SCT250
     FM291700 23005KT P6SM FEW020 BKN100=



000
FTUS44 KHGX 281720
TAFGLS
TAF
KGLS 281720Z 2818/2918 14008KT P6SM SCT250
     FM290600 18006KT 6SM BR SCT250=



000
FTUS44 KHGX 281720
TAFHOU
TAF
KHOU 281720Z 2818/2918 VRB03KT P6SM FEW250
     FM282000 15009KT P6SM SCT250
     FM290300 18004KT P6SM SCT250
     FM291000 19003KT 4SM BR SCT015 SCT100 SCT250
     FM291700 25005KT P6SM FEW020 BKN100=



000
FTUS44 KHGX 281720
TAFSGR
TAF
KSGR 281720Z 2818/2918 VRB03KT P6SM FEW250
     FM282000 15009KT P6SM SCT250
     FM290300 18004KT P6SM SCT250
     FM290900 19003KT 4SM BR SCT015 SCT100 SCT250
     FM291100 18003KT 1SM BR SCT015 SCT100 SCT250
     FM291700 24005KT P6SM FEW020 BKN100=



000
FTUS44 KHGX 281720
TAFCLL
TAF
KCLL 281720Z 2818/2918 17009KT P6SM SCT250
     FM290300 17005KT P6SM SCT250
     FM290800 18003KT 3SM BR SCT015 SCT100 SCT250
     FM291700 26006KT P6SM FEW015 SCT100 SCT250=



000
FTUS44 KHGX 281503 AAA
TAFIAH
TAF AMD
KIAH 281503Z 2815/2918 VRB03KT P6SM FEW250
     FM282000 15009KT P6SM SCT250
     FM290300 18004KT P6SM SCT250
     FM291000 19003KT 6SM BR SCT250
     FM291500 20003KT P6SM SCT015 SCT250=



000
FTUS44 KHGX 281503 AAA
TAFIAH
TAF AMD
KIAH 281503Z 2815/2918 VRB03KT P6SM FEW250
     FM282000 15009KT P6SM SCT250
     FM290300 18004KT P6SM SCT250
     FM291000 19003KT 6SM BR SCT250
     FM291500 20003KT P6SM SCT015 SCT250=



000
FTUS44 KHGX 281503 AAA
TAFHOU
TAF AMD
KHOU 281503Z 2815/2912 VRB03KT P6SM FEW250
     FM282000 16009KT P6SM SCT250
     FM290300 18004KT P6SM SCT250
     FM291000 19003KT 6SM BR SCT250=



000
FTUS44 KHGX 281121
TAFCXO
TAF
KCXO 281121Z 2812/2912 VRB03KT P6SM FEW250
      TEMPO 2812/2813 6SM BR
     FM282000 16009KT P6SM SCT250
     FM290300 16004KT P6SM SCT250
     FM291000 VRB03KT 6SM BR SCT250=



000
FTUS44 KHGX 281121
TAFUTS
TAF
KUTS 281121Z 2812/2912 VRB04KT P6SM FEW250
     FM281700 18005KT P6SM SCT250
     FM282100 18007KT P6SM SCT250
     FM290300 18004KT P6SM SCT250
      TEMPO 2910/2912 6SM BR=



000
FTUS44 KHGX 281121
TAFSGR
TAF
KSGR 281121Z 2812/2912 VRB03KT P6SM FEW250
     FM282000 16009KT P6SM SCT250
     FM290300 18004KT P6SM SCT250
     FM291000 19003KT 6SM BR SCT250=



000
FTUS44 KHGX 281121
TAFSGR
TAF
KSGR 281121Z 2812/2912 VRB03KT P6SM FEW250
     FM282000 16009KT P6SM SCT250
     FM290300 18004KT P6SM SCT250
     FM291000 19003KT 6SM BR SCT250=



000
FTUS44 KHGX 281121
TAFHOU
TAF
KHOU 281121Z 2812/2912 VRB03KT P6SM FEW250
     FM282000 16009KT P6SM SCT250
     FM290300 18004KT P6SM SCT250
     FM291000 19003KT 6SM BR SCT250=



000
FTUS44 KHGX 281121
TAFLBX
TAF
KLBX 281121Z 2812/2912 VRB03KT 3SM BR FEW250
     FM281500 VRB03KT P6SM FEW250
     FM282000 17009KT P6SM SCT250
     FM290500 18004KT 5SM BR SCT250
     FM290800 19003KT 1SM BR FEW004 SCT250=



000
FTUS44 KHGX 281121
TAFGLS
TAF
KGLS 281121Z 2812/2912 VRB04KT P6SM SCT250
      TEMPO 2812/2814 4SM BR
     FM281800 14008KT P6SM SCT250
     FM290600 17006KT 6SM BR SCT250=



000
FTUS44 KHGX 281121
TAFHOU
TAF
KHOU 281121Z 2812/2912 VRB03KT P6SM FEW250
     FM282000 16009KT P6SM SCT250
     FM290300 18004KT P6SM SCT250
     FM291000 19003KT 6SM BR SCT250=



000
FTUS44 KHGX 281121
TAFIAH
TAF
KIAH 281121Z 2812/2918 VRB03KT P6SM FEW250
      TEMPO 2812/2813 6SM BR
     FM282000 15009KT P6SM SCT250
     FM290300 18004KT P6SM SCT250
     FM291000 19003KT 6SM BR SCT250
     FM291500 20003KT P6SM SCT015 SCT250=



000
FTUS44 KHGX 281121
TAFCXO
TAF
KCXO 281121Z 2812/2912 VRB03KT P6SM FEW250
      TEMPO 2812/2813 6SM BR
     FM282000 16009KT P6SM SCT250
     FM290300 16004KT P6SM SCT250
     FM291000 VRB03KT 6SM BR SCT250=



000
FTUS44 KHGX 281121
TAFLBX
TAF
KLBX 281121Z 2812/2912 VRB03KT 3SM BR FEW250
     FM281500 VRB03KT P6SM FEW250
     FM282000 17009KT P6SM SCT250
     FM290500 18004KT 5SM BR SCT250
     FM290800 19003KT 1SM BR FEW004 SCT250=



000
FTUS44 KHGX 281121
TAFGLS
TAF
KGLS 281121Z 2812/2912 VRB04KT P6SM SCT250
      TEMPO 2812/2814 4SM BR
     FM281800 14008KT P6SM SCT250
     FM290600 17006KT 6SM BR SCT250=



000
FTUS44 KHGX 281121
TAFCLL
TAF
KCLL 281121Z 2812/2912 VRB04KT P6SM FEW250
     FM281700 18009KT P6SM SCT250
     FM282100 17013KT P6SM SCT250
     FM290300 17007KT P6SM SCT250
      TEMPO 2910/2912 5SM BR=



000
FTUS44 KHGX 281121
TAFCLL
TAF
KCLL 281121Z 2812/2912 VRB04KT P6SM FEW250
     FM281700 18009KT P6SM SCT250
     FM282100 17013KT P6SM SCT250
     FM290300 17007KT P6SM SCT250
      TEMPO 2910/2912 5SM BR=



000
FTUS44 KHGX 281121
TAFUTS
TAF
KUTS 281121Z 2812/2912 VRB04KT P6SM FEW250
     FM281700 18005KT P6SM SCT250
     FM282100 18007KT P6SM SCT250
     FM290300 18004KT P6SM SCT250
      TEMPO 2910/2912 6SM BR=



000
FTUS44 KHGX 281121
TAFIAH
TAF
KIAH 281121Z 2812/2918 VRB03KT P6SM FEW250
      TEMPO 2812/2813 6SM BR
     FM282000 15009KT P6SM SCT250
     FM290300 18004KT P6SM SCT250
     FM291000 19003KT 6SM BR SCT250
     FM291500 20003KT P6SM SCT015 SCT250=



000
FTUS44 KHGX 280934 AAA
TAFGLS
TAF AMD
KGLS 280934Z 2810/2906 00000KT 3SM BR SKC
     FM281400 14009KT P6SM FEW250
     FM290300 16007KT 6SM BR FEW250=



000
FTUS44 KHGX 280934 AAA
TAFGLS
TAF AMD
KGLS 280934Z 2810/2906 00000KT 3SM BR SKC
     FM281400 14009KT P6SM FEW250
     FM290300 16007KT 6SM BR FEW250=



000
FTUS44 KHGX 280934 AAA
TAFGLS
TAF AMD
KGLS 280934Z 2810/2906 00000KT 3SM BR SKC
     FM281400 14009KT P6SM FEW250
     FM290300 16007KT 6SM BR FEW250=



000
FTUS44 KHGX 280934 AAA
TAFGLS
TAF AMD
KGLS 280934Z 2810/2906 00000KT 3SM BR SKC
     FM281400 14009KT P6SM FEW250
     FM290300 16007KT 6SM BR FEW250=



000
FTUS44 KHGX 280912 AAA
TAFHOU
TAF AMD
KHOU 280912Z 2809/2906 00000KT P6SM FEW250
      TEMPO 2811/2813 6SM BR
     FM281500 16003KT P6SM SCT250
     FM282000 16009KT P6SM SCT250
     FM290300 18004KT P6SM FEW250=



000
FTUS44 KHGX 280912 AAA
TAFHOU
TAF AMD
KHOU 280912Z 2809/2906 00000KT P6SM FEW250
      TEMPO 2811/2813 6SM BR
     FM281500 16003KT P6SM SCT250
     FM282000 16009KT P6SM SCT250
     FM290300 18004KT P6SM FEW250=



000
FTUS44 KHGX 280912 AAA
TAFIAH
TAF AMD
KIAH 280912Z 2809/2912 00000KT P6SM FEW250
      TEMPO 2811/2813 6SM BR
     FM281500 14003KT P6SM SCT250
     FM282000 15009KT P6SM SCT250
     FM290300 18004KT P6SM FEW250
     FM290900 19003KT 5SM BR SCT250
      TEMPO 2910/2912 2SM BR=



000
FTUS44 KHGX 280912 AAA
TAFIAH
TAF AMD
KIAH 280912Z 2809/2912 00000KT P6SM FEW250
      TEMPO 2811/2813 6SM BR
     FM281500 14003KT P6SM SCT250
     FM282000 15009KT P6SM SCT250
     FM290300 18004KT P6SM FEW250
     FM290900 19003KT 5SM BR SCT250
      TEMPO 2910/2912 2SM BR=



000
FTUS44 KHGX 280521
TAFSGR
TAF
KSGR 280521Z 2806/2906 14003KT P6SM SKC
     FM280900 00000KT 6SM BR MIFG SKC
     FM281500 16006KT P6SM FEW250
     FM281900 17009KT P6SM SCT250
     FM290000 17005KT P6SM SCT250=



000
FTUS44 KHGX 280521
TAFCLL
TAF
KCLL 280521Z 2806/2906 00000KT P6SM SKC
     FM281600 17008KT P6SM SKC
     FM282000 18014KT P6SM SCT250
     FM290000 17007KT P6SM SCT250=



000
FTUS44 KHGX 280521
TAFGLS
TAF
KGLS 280521Z 2806/2906 15005KT P6SM SKC
     FM280800 15003KT 6SM BR MIFG SKC
     FM281600 14009KT P6SM FEW250
     FM290300 16007KT 6SM BR FEW250=



000
FTUS44 KHGX 280521
TAFHOU
TAF
KHOU 280521Z 2806/2906 17004KT P6SM SCT250
     FM280900 00000KT 6SM BR MIFG SKC
     FM281500 14004KT P6SM FEW250
     FM281800 17009KT P6SM SCT250
     FM290000 17005KT P6SM SCT250=



000
FTUS44 KHGX 280521
TAFCXO
TAF
KCXO 280521Z 2806/2906 00000KT P6SM SKC
     FM280900 00000KT 6SM BR MIFG SKC
     FM281700 15007KT P6SM FEW250
     FM282000 16010KT P6SM SCT250
     FM290000 16005KT P6SM SCT250=



000
FTUS44 KHGX 280521
TAFLBX
TAF
KLBX 280521Z 2806/2906 17003KT P6SM SKC
     FM280800 00000KT 3SM BR MIFG SCT250
     FM281500 16004KT P6SM FEW250
     FM281800 18010KT P6SM SCT250
     FM290000 17005KT P6SM SCT250=



000
FTUS44 KHGX 280521
TAFUTS
TAF
KUTS 280521Z 2806/2906 00000KT P6SM SKC
     FM281700 17008KT P6SM SCT250
     FM282300 19005KT P6SM SCT250=



000
FTUS44 KHGX 280521
TAFIAH
TAF
KIAH 280521Z 2806/2912 00000KT P6SM FEW250
     FM280900 00000KT 6SM BR MIFG FEW250
     FM281600 15007KT P6SM SCT250
     FM281900 16010KT P6SM SCT250
     FM290100 16005KT P6SM SCT250=



000
FTUS44 KHGX 280521
TAFCXO
TAF
KCXO 280521Z 2806/2906 00000KT P6SM SKC
     FM280900 00000KT 6SM BR MIFG SKC
     FM281700 15007KT P6SM FEW250
     FM282000 16010KT P6SM SCT250
     FM290000 16005KT P6SM SCT250=



000
FTUS44 KHGX 280521
TAFIAH
TAF
KIAH 280521Z 2806/2912 00000KT P6SM FEW250
     FM280900 00000KT 6SM BR MIFG FEW250
     FM281600 15007KT P6SM SCT250
     FM281900 16010KT P6SM SCT250
     FM290100 16005KT P6SM SCT250=



000
FTUS44 KHGX 280521
TAFCLL
TAF
KCLL 280521Z 2806/2906 00000KT P6SM SKC
     FM281600 17008KT P6SM SKC
     FM282000 18014KT P6SM SCT250
     FM290000 17007KT P6SM SCT250=



000
FTUS44 KHGX 280521
TAFUTS
TAF
KUTS 280521Z 2806/2906 00000KT P6SM SKC
     FM281700 17008KT P6SM SCT250
     FM282300 19005KT P6SM SCT250=



000
FTUS44 KHGX 280521
TAFLBX
TAF
KLBX 280521Z 2806/2906 17003KT P6SM SKC
     FM280800 00000KT 3SM BR MIFG SCT250
     FM281500 16004KT P6SM FEW250
     FM281800 18010KT P6SM SCT250
     FM290000 17005KT P6SM SCT250=



000
FTUS44 KHGX 280521
TAFHOU
TAF
KHOU 280521Z 2806/2906 17004KT P6SM SCT250
     FM280900 00000KT 6SM BR MIFG SKC
     FM281500 14004KT P6SM FEW250
     FM281800 17009KT P6SM SCT250
     FM290000 17005KT P6SM SCT250=



000
FTUS44 KHGX 280521
TAFGLS
TAF
KGLS 280521Z 2806/2906 15005KT P6SM SKC
     FM280800 15003KT 6SM BR MIFG SKC
     FM281600 14009KT P6SM FEW250
     FM290300 16007KT 6SM BR FEW250=



000
FTUS44 KHGX 280521
TAFSGR
TAF
KSGR 280521Z 2806/2906 14003KT P6SM SKC
     FM280900 00000KT 6SM BR MIFG SKC
     FM281500 16006KT P6SM FEW250
     FM281900 17009KT P6SM SCT250
     FM290000 17005KT P6SM SCT250=



000
FTUS44 KHGX 280314 AAA
TAFHOU
TAF AMD
KHOU 280314Z 2803/2824 16004KT P6SM FEW250
     FM280900 00000KT 6SM BR MIFG SKC
     FM281500 14004KT P6SM FEW250
     FM281800 17009KT P6SM SCT250=



000
FTUS44 KHGX 280314 AAA
TAFHOU
TAF AMD
KHOU 280314Z 2803/2824 16004KT P6SM FEW250
     FM280900 00000KT 6SM BR MIFG SKC
     FM281500 14004KT P6SM FEW250
     FM281800 17009KT P6SM SCT250=



000
FTUS44 KHGX 280314 AAA
TAFIAH
TAF AMD
KIAH 280314Z 2803/2906 00000KT P6SM FEW250
     FM280900 00000KT 6SM BR MIFG FEW250
     FM281600 15007KT P6SM SCT250
     FM281800 16010KT P6SM SCT250
     FM290100 16006KT P6SM FEW250=



000
FTUS44 KHGX 280314 AAA
TAFIAH
TAF AMD
KIAH 280314Z 2803/2906 00000KT P6SM FEW250
     FM280900 00000KT 6SM BR MIFG FEW250
     FM281600 15007KT P6SM SCT250
     FM281800 16010KT P6SM SCT250
     FM290100 16006KT P6SM FEW250=



000
FTUS44 KHGX 272325
TAFIAH
TAF
KIAH 272325Z 2800/2906 VRB02KT P6SM SKC
     FM280900 00000KT 6SM BR MIFG FEW250
     FM281600 15007KT P6SM SCT250
     FM281800 16010KT P6SM SCT250
     FM290100 16006KT P6SM FEW250=



000
FTUS44 KHGX 272325
TAFUTS
TAF
KUTS 272325Z 2800/2824 VRB02KT P6SM SKC
     FM281700 17008KT P6SM SKC=



000
FTUS44 KHGX 272325
TAFCXO
TAF
KCXO 272325Z 2800/2824 VRB02KT P6SM SKC
     FM280900 00000KT 6SM BR MIFG SKC
     FM281600 15005KT P6SM FEW250
     FM281800 16010KT P6SM FEW250=



000
FTUS44 KHGX 272325
TAFHOU
TAF
KHOU 272325Z 2800/2824 VRB02KT P6SM SKC
     FM280900 00000KT 6SM BR MIFG SKC
     FM281500 14004KT P6SM FEW250
     FM281800 17009KT P6SM SCT250=



000
FTUS44 KHGX 272325
TAFSGR
TAF
KSGR 272325Z 2800/2824 29004KT P6SM SKC
     FM280900 00000KT 6SM BR MIFG SKC
     FM281500 16006KT P6SM FEW250
     FM281800 17009KT P6SM SCT250=



000
FTUS44 KHGX 272325
TAFGLS
TAF
KGLS 272325Z 2800/2824 14005KT P6SM SKC
     FM280800 15003KT 5SM BR MIFG SKC
     FM281600 14009KT P6SM SKC=



000
FTUS44 KHGX 272325
TAFCLL
TAF
KCLL 272325Z 2800/2824 VRB02KT P6SM SKC
     FM281500 17007KT P6SM SKC
     FM281800 18014KT P6SM SKC=



000
FTUS44 KHGX 272325
TAFLBX
TAF
KLBX 272325Z 2800/2824 VRB03KT P6SM SKC
     FM280800 00000KT 3SM BR MIFG SCT250
     FM281500 16004KT P6SM FEW250
     FM281800 18010KT P6SM FEW250=



000
FTUS44 KHGX 272325
TAFIAH
TAF
KIAH 272325Z 2800/2906 VRB02KT P6SM SKC
     FM280900 00000KT 6SM BR MIFG FEW250
     FM281600 15007KT P6SM SCT250
     FM281800 16010KT P6SM SCT250
     FM290100 16006KT P6SM FEW250=



000
FTUS44 KHGX 272325
TAFHOU
TAF
KHOU 272325Z 2800/2824 VRB02KT P6SM SKC
     FM280900 00000KT 6SM BR MIFG SKC
     FM281500 14004KT P6SM FEW250
     FM281800 17009KT P6SM SCT250=



000
FTUS44 KHGX 272325
TAFLBX
TAF
KLBX 272325Z 2800/2824 VRB03KT P6SM SKC
     FM280800 00000KT 3SM BR MIFG SCT250
     FM281500 16004KT P6SM FEW250
     FM281800 18010KT P6SM FEW250=



000
FTUS44 KHGX 272325
TAFCXO
TAF
KCXO 272325Z 2800/2824 VRB02KT P6SM SKC
     FM280900 00000KT 6SM BR MIFG SKC
     FM281600 15005KT P6SM FEW250
     FM281800 16010KT P6SM FEW250=



000
FTUS44 KHGX 272325
TAFSGR
TAF
KSGR 272325Z 2800/2824 29004KT P6SM SKC
     FM280900 00000KT 6SM BR MIFG SKC
     FM281500 16006KT P6SM FEW250
     FM281800 17009KT P6SM SCT250=



000
FTUS44 KHGX 272325
TAFCLL
TAF
KCLL 272325Z 2800/2824 VRB02KT P6SM SKC
     FM281500 17007KT P6SM SKC
     FM281800 18014KT P6SM SKC=



000
FTUS44 KHGX 272325
TAFGLS
TAF
KGLS 272325Z 2800/2824 14005KT P6SM SKC
     FM280800 15003KT 5SM BR MIFG SKC
     FM281600 14009KT P6SM SKC=



000
FTUS44 KHGX 272325
TAFUTS
TAF
KUTS 272325Z 2800/2824 VRB02KT P6SM SKC
     FM281700 17008KT P6SM SKC=



000
FTUS44 KHGX 272054 AAA
TAFHOU
TAF AMD
KHOU 272054Z 2721/2818 30006KT P6SM SKC
      TEMPO 2810/2814 5SM BR
     FM281500 14004KT P6SM FEW250=



000
FTUS44 KHGX 272054 AAA
TAFIAH
TAF AMD
KIAH 272054Z 2721/2824 31005KT P6SM SKC
      TEMPO 2810/2814 5SM BR
     FM281500 14004KT P6SM FEW250
     FM281800 16010KT P6SM SCT250=



000
FTUS44 KHGX 272054 AAA
TAFIAH
TAF AMD
KIAH 272054Z 2721/2824 31005KT P6SM SKC
      TEMPO 2810/2814 5SM BR
     FM281500 14004KT P6SM FEW250
     FM281800 16010KT P6SM SCT250=



000
FTUS44 KHGX 272054 AAA
TAFHOU
TAF AMD
KHOU 272054Z 2721/2818 30006KT P6SM SKC
      TEMPO 2810/2814 5SM BR
     FM281500 14004KT P6SM FEW250=



000
FTUS44 KHGX 271726
TAFCXO
TAF
KCXO 271726Z 2718/2818 31004KT P6SM SKC
     FM280900 00000KT 6SM BR SKC
      TEMPO 2810/2814 4SM BR
     FM281600 16005KT P6SM FEW250=



000
FTUS44 KHGX 271726
TAFCLL
TAF
KCLL 271726Z 2718/2818 VRB04KT P6SM SKC
     FM281600 17007KT P6SM SKC=



000
FTUS44 KHGX 271726
TAFUTS
TAF
KUTS 271726Z 2718/2818 00000KT P6SM SKC
     FM281600 17006KT P6SM SKC=



000
FTUS44 KHGX 271726
TAFGLS
TAF
KGLS 271726Z 2718/2818 27006KT P6SM SKC
     FM280000 18004KT P6SM SCT250
     FM280800 15003KT 6SM BR SKC
      TEMPO 2808/2812 4SM BR
     FM281400 13008KT P6SM SKC=



000
FTUS44 KHGX 271726
TAFIAH
TAF
KIAH 271726Z 2718/2824 29004KT P6SM FEW250
      TEMPO 2810/2814 5SM BR
     FM281500 14004KT P6SM FEW250
     FM281800 16010KT P6SM SCT250=



000
FTUS44 KHGX 271726
TAFSGR
TAF
KSGR 271726Z 2718/2818 30008KT P6SM SKC
      TEMPO 2810/2814 5SM BR
     FM281400 14004KT P6SM FEW250=



000
FTUS44 KHGX 271726
TAFLBX
TAF
KLBX 271726Z 2718/2818 31008KT P6SM SKC
     FM280000 VRB02KT P6SM SCT250
     FM280800 00000KT 4SM BR SCT250
      TEMPO 2810/2812 1SM BR SCT250
     FM281500 14004KT P6SM FEW250=



000
FTUS44 KHGX 271726
TAFHOU
TAF
KHOU 271726Z 2718/2818 27006KT P6SM SKC
      TEMPO 2810/2814 5SM BR
     FM281500 14004KT P6SM FEW250=



000
FTUS44 KHGX 271726
TAFSGR
TAF
KSGR 271726Z 2718/2818 30008KT P6SM SKC
      TEMPO 2810/2814 5SM BR
     FM281400 14004KT P6SM FEW250=



000
FTUS44 KHGX 271726
TAFLBX
TAF
KLBX 271726Z 2718/2818 31008KT P6SM SKC
     FM280000 VRB02KT P6SM SCT250
     FM280800 00000KT 4SM BR SCT250
      TEMPO 2810/2812 1SM BR SCT250
     FM281500 14004KT P6SM FEW250=



000
FTUS44 KHGX 271726
TAFHOU
TAF
KHOU 271726Z 2718/2818 27006KT P6SM SKC
      TEMPO 2810/2814 5SM BR
     FM281500 14004KT P6SM FEW250=



000
FTUS44 KHGX 271726
TAFCXO
TAF
KCXO 271726Z 2718/2818 31004KT P6SM SKC
     FM280900 00000KT 6SM BR SKC
      TEMPO 2810/2814 4SM BR
     FM281600 16005KT P6SM FEW250=



000
FTUS44 KHGX 271726
TAFIAH
TAF
KIAH 271726Z 2718/2824 29004KT P6SM FEW250
      TEMPO 2810/2814 5SM BR
     FM281500 14004KT P6SM FEW250
     FM281800 16010KT P6SM SCT250=



000
FTUS44 KHGX 271726
TAFUTS
TAF
KUTS 271726Z 2718/2818 00000KT P6SM SKC
     FM281600 17006KT P6SM SKC=



000
FTUS44 KHGX 271726
TAFGLS
TAF
KGLS 271726Z 2718/2818 27006KT P6SM SKC
     FM280000 18004KT P6SM SCT250
     FM280800 15003KT 6SM BR SKC
      TEMPO 2808/2812 4SM BR
     FM281400 13008KT P6SM SKC=



000
FTUS44 KHGX 271726
TAFCLL
TAF
KCLL 271726Z 2718/2818 VRB04KT P6SM SKC
     FM281600 17007KT P6SM SKC=



000
FTUS44 KHGX 271500 AAA
TAFHOU
TAF AMD
KHOU 271500Z 2715/2812 26007KT P6SM FEW250
      TEMPO 2810/2812 5SM BR=



000
FTUS44 KHGX 271500 AAA
TAFIAH
TAF AMD
KIAH 271500Z 2715/2818 27005KT P6SM FEW250
      TEMPO 2810/2814 5SM BR
     FM281500 14004KT P6SM FEW250=



000
FTUS44 KHGX 271500 AAA
TAFHOU
TAF AMD
KHOU 271500Z 2715/2812 26007KT P6SM FEW250
      TEMPO 2810/2812 5SM BR=



000
FTUS44 KHGX 271500 AAA
TAFIAH
TAF AMD
KIAH 271500Z 2715/2818 27005KT P6SM FEW250
      TEMPO 2810/2814 5SM BR
     FM281500 14004KT P6SM FEW250=



000
FTUS44 KHGX 271120
TAFUTS
TAF
KUTS 271120Z 2712/2812 VRB04KT P6SM SCT250=



000
FTUS44 KHGX 271120
TAFLBX
TAF
KLBX 271120Z 2712/2812 26003KT P6SM SCT250
     FM271800 28008KT P6SM SCT250
     FM280000 VRB02KT P6SM SCT250
     FM280800 00000KT 4SM BR SCT250
      TEMPO 2810/2812 1SM BR SCT250=



000
FTUS44 KHGX 271120
TAFGLS
TAF
KGLS 271120Z 2712/2812 28008KT P6SM SCT250
     FM272100 23008KT P6SM SCT250
     FM280000 18004KT P6SM SCT250
      TEMPO 2808/2812 4SM BR=



000
FTUS44 KHGX 271120
TAFCLL
TAF
KCLL 271120Z 2712/2812 28005KT P6SM SCT250=



000
FTUS44 KHGX 271120
TAFHOU
TAF
KHOU 271120Z 2712/2812 28005KT P6SM SCT250
      TEMPO 2810/2812 5SM BR=



000
FTUS44 KHGX 271120
TAFSGR
TAF
KSGR 271120Z 2712/2812 28005KT P6SM SCT250
      TEMPO 2810/2812 5SM BR=



000
FTUS44 KHGX 271120
TAFSGR
TAF
KSGR 271120Z 2712/2812 28005KT P6SM SCT250
      TEMPO 2810/2812 5SM BR=



000
FTUS44 KHGX 271120
TAFIAH
TAF
KIAH 271120Z 2712/2818 27005KT P6SM SCT250
      TEMPO 2810/2814 5SM BR
     FM281500 14004KT P6SM FEW250=



000
FTUS44 KHGX 271120
TAFCLL
TAF
KCLL 271120Z 2712/2812 28005KT P6SM SCT250=



000
FTUS44 KHGX 271120
TAFCXO
TAF
KCXO 271120Z 2712/2812 VRB04KT P6SM SCT250
      TEMPO 2809/2812 4SM BR=



000
FTUS44 KHGX 271120
TAFLBX
TAF
KLBX 271120Z 2712/2812 26003KT P6SM SCT250
     FM271800 28008KT P6SM SCT250
     FM280000 VRB02KT P6SM SCT250
     FM280800 00000KT 4SM BR SCT250
      TEMPO 2810/2812 1SM BR SCT250=



000
FTUS44 KHGX 271120
TAFGLS
TAF
KGLS 271120Z 2712/2812 28008KT P6SM SCT250
     FM272100 23008KT P6SM SCT250
     FM280000 18004KT P6SM SCT250
      TEMPO 2808/2812 4SM BR=



000
FTUS44 KHGX 271120
TAFIAH
TAF
KIAH 271120Z 2712/2818 27005KT P6SM SCT250
      TEMPO 2810/2814 5SM BR
     FM281500 14004KT P6SM FEW250=



000
FTUS44 KHGX 271120
TAFHOU
TAF
KHOU 271120Z 2712/2812 28005KT P6SM SCT250
      TEMPO 2810/2812 5SM BR=



000
FTUS44 KHGX 271120
TAFUTS
TAF
KUTS 271120Z 2712/2812 VRB04KT P6SM SCT250=



000
FTUS44 KHGX 271120
TAFCXO
TAF
KCXO 271120Z 2712/2812 VRB04KT P6SM SCT250
      TEMPO 2809/2812 4SM BR=



000
FTUS44 KHGX 270932 AAA
TAFIAH
TAF AMD
KIAH 270932Z 2710/2812 26005KT P6SM SCT250
     FM271500 30007KT P6SM SCT250
     FM280000 12003KT P6SM SCT250=



000
FTUS44 KHGX 270932 AAA
TAFIAH
TAF AMD
KIAH 270932Z 2710/2812 26005KT P6SM SCT250
     FM271500 30007KT P6SM SCT250
     FM280000 12003KT P6SM SCT250=



000
FTUS44 KHGX 270932 AAA
TAFHOU
TAF AMD
KHOU 270932Z 2710/2806 24005KT P6SM SCT250
     FM271500 29009KT P6SM SCT250
     FM280000 15003KT P6SM SCT250=



000
FTUS44 KHGX 270932 AAA
TAFHOU
TAF AMD
KHOU 270932Z 2710/2806 24005KT P6SM SCT250
     FM271500 29009KT P6SM SCT250
     FM280000 15003KT P6SM SCT250=



000
FTUS44 KHGX 270520
TAFCXO
TAF
KCXO 270520Z 2706/2806 VRB06KT P6SM BKN250=



000
FTUS44 KHGX 270520
TAFHOU
TAF
KHOU 270520Z 2706/2806 22005KT P6SM BKN250
     FM271500 29009KT P6SM SCT250
     FM280000 15003KT P6SM SCT250=



000
FTUS44 KHGX 270520
TAFUTS
TAF
KUTS 270520Z 2706/2806 VRB06KT P6SM BKN250=



000
FTUS44 KHGX 270520
TAFCLL
TAF
KCLL 270520Z 2706/2806 VRB06KT P6SM BKN250=



000
FTUS44 KHGX 270520
TAFCXO
TAF
KCXO 270520Z 2706/2806 VRB06KT P6SM BKN250=



000
FTUS44 KHGX 270520
TAFHOU
TAF
KHOU 270520Z 2706/2806 22005KT P6SM BKN250
     FM271500 29009KT P6SM SCT250
     FM280000 15003KT P6SM SCT250=



000
FTUS44 KHGX 270520
TAFLBX
TAF
KLBX 270520Z 2706/2806 22004KT P6SM BKN250
     FM271500 28009KT P6SM BKN250
     FM280000 VRB03KT P6SM SCT250=



000
FTUS44 KHGX 270520
TAFGLS
TAF
KGLS 270520Z 2706/2806 23008KT P6SM BKN250
     FM271500 27010KT P6SM BKN250
     FM272300 18006KT P6SM SCT250=



000
FTUS44 KHGX 270520
TAFLBX
TAF
KLBX 270520Z 2706/2806 22004KT P6SM BKN250
     FM271500 28009KT P6SM BKN250
     FM280000 VRB03KT P6SM SCT250=



000
FTUS44 KHGX 270520
TAFIAH
TAF
KIAH 270520Z 2706/2812 23004KT P6SM BKN250
     FM271500 30007KT P6SM SCT250
     FM280000 12003KT P6SM SCT250=



000
FTUS44 KHGX 270520
TAFIAH
TAF
KIAH 270520Z 2706/2812 23004KT P6SM BKN250
     FM271500 30007KT P6SM SCT250
     FM280000 12003KT P6SM SCT250=



000
FTUS44 KHGX 270520
TAFSGR
TAF
KSGR 270520Z 2706/2806 22005KT P6SM BKN250
     FM271500 30007KT P6SM BKN250
     FM280000 17003KT P6SM SCT250=



000
FTUS44 KHGX 270520
TAFSGR
TAF
KSGR 270520Z 2706/2806 22005KT P6SM BKN250
     FM271500 30007KT P6SM BKN250
     FM280000 17003KT P6SM SCT250=



000
FTUS44 KHGX 270520
TAFGLS
TAF
KGLS 270520Z 2706/2806 23008KT P6SM BKN250
     FM271500 27010KT P6SM BKN250
     FM272300 18006KT P6SM SCT250=



000
FTUS44 KHGX 270520
TAFUTS
TAF
KUTS 270520Z 2706/2806 VRB06KT P6SM BKN250=



000
FTUS44 KHGX 270520
TAFCLL
TAF
KCLL 270520Z 2706/2806 VRB06KT P6SM BKN250=



    US Dept of Commerce
    National Oceanic and Atmospheric Administration
    National Weather Service
    1325 East West Highway
    Silver Spring, MD 20910
    Page Author: NWS Internet Services Team
Disclaimer
Information Quality
Credits
Glossary
Privacy Policy
Freedom of Information Act (FOIA)
About Us
Career Opportunities